BAW2604 RJGG-OBBI
Flight info
| Callsign | BAW2604 |
|---|---|
| Flight time | 11h 32m |
| Altitude | 34000 |
| Route | ISE3 KOZA KEC ALUYO Z26 TONAR Y52 IGURU G581 HCN G86 KAPLI DCT IKELA/K0932F340 A1 LENKO DCT TRABE/N0500F360 DCT OKENA DCT CMP G473 BGO G472 PTN N895 RUXAL/N0499F380 N895 AAE L639 RASKI L301 RAGMA N571 MENSA/N0499F340 N571 IVOXI M557 TUMAK DCT ROTAG L768 ORDIG |
| Aircraft | A35K/H-SDE2E3GHIJ3J4J5LM1ORWXY/LB1D1 |
Departure
| Time | 2026-04-29 09:22 |
|---|---|
| Airport | Chubu Centrair International Airport (RJGG) |
Arrival
| Time | 2026-04-29 20:55 |
|---|---|
| Airport | Bahrain International Airport (OBBI) |
| Time | Latitude | Longitude | Altitude | Speed | Heading |
|---|---|---|---|---|---|
| 2026-04-29 08:23 | 34.85401 | 136.81440 | 27 ft | 0 kts | 78° |
| 2026-04-29 09:11 | 34.85402 | 136.81443 | 25 ft | 2 kts | 78° |
| 2026-04-29 09:11 | 34.85398 | 136.81421 | 29 ft | 3 kts | 83° |
| 2026-04-29 09:11 | 34.85397 | 136.81397 | 27 ft | 3 kts | 98° |
| 2026-04-29 09:11 | 34.85401 | 136.81373 | 30 ft | 3 kts | 113° |
| 2026-04-29 09:12 | 34.85411 | 136.81352 | 30 ft | 2 kts | 123° |
| 2026-04-29 09:12 | 34.85415 | 136.81344 | 30 ft | 1 kts | 123° |
| 2026-04-29 09:12 | 34.85392 | 136.81385 | 30 ft | 5 kts | 123° |
| 2026-04-29 09:12 | 34.85369 | 136.81428 | 28 ft | 8 kts | 123° |
| 2026-04-29 09:13 | 34.85347 | 136.81470 | 27 ft | 7 kts | 123° |
| 2026-04-29 09:13 | 34.85315 | 136.81528 | 27 ft | 5 kts | 123° |
| 2026-04-29 09:13 | 34.85302 | 136.81553 | 28 ft | 0 kts | 123° |
| 2026-04-29 09:14 | 34.85307 | 136.81544 | 29 ft | 2 kts | 123° |
| 2026-04-29 09:14 | 34.85316 | 136.81527 | 27 ft | 2 kts | 123° |
| 2026-04-29 09:14 | 34.85325 | 136.81510 | 28 ft | 2 kts | 123° |
| 2026-04-29 09:15 | 34.85333 | 136.81494 | 29 ft | 2 kts | 123° |
| 2026-04-29 09:15 | 34.85342 | 136.81479 | 29 ft | 2 kts | 123° |
| 2026-04-29 09:15 | 34.85350 | 136.81464 | 29 ft | 2 kts | 123° |
| 2026-04-29 09:15 | 34.85358 | 136.81450 | 27 ft | 2 kts | 123° |
| 2026-04-29 09:16 | 34.85365 | 136.81436 | 29 ft | 2 kts | 123° |
| 2026-04-29 09:16 | 34.85372 | 136.81424 | 27 ft | 2 kts | 123° |
| 2026-04-29 09:16 | 34.85378 | 136.81413 | 28 ft | 2 kts | 123° |
| 2026-04-29 09:16 | 34.85384 | 136.81402 | 30 ft | 1 kts | 123° |
| 2026-04-29 09:17 | 34.85389 | 136.81393 | 30 ft | 1 kts | 123° |
| 2026-04-29 09:17 | 34.85383 | 136.81401 | 30 ft | 4 kts | 136° |
| 2026-04-29 09:17 | 34.85372 | 136.81400 | 29 ft | 1 kts | 186° |
| 2026-04-29 09:17 | 34.85330 | 136.81387 | 27 ft | 10 kts | 197° |
| 2026-04-29 09:18 | 34.85285 | 136.81373 | 27 ft | 10 kts | 190° |
| 2026-04-29 09:18 | 34.85188 | 136.81382 | 29 ft | 11 kts | 169° |
| 2026-04-29 09:18 | 34.85113 | 136.81399 | 27 ft | 11 kts | 169° |
| 2026-04-29 09:18 | 34.85033 | 136.81418 | 28 ft | 12 kts | 169° |
| 2026-04-29 09:19 | 34.84950 | 136.81431 | 27 ft | 12 kts | 184° |
| 2026-04-29 09:19 | 34.84884 | 136.81383 | 28 ft | 11 kts | 243° |
| 2026-04-29 09:19 | 34.84874 | 136.81290 | 27 ft | 11 kts | 262° |
| 2026-04-29 09:19 | 34.84848 | 136.81203 | 30 ft | 11 kts | 227° |
| 2026-04-29 09:20 | 34.84776 | 136.81175 | 27 ft | 11 kts | 188° |
| 2026-04-29 09:20 | 34.84700 | 136.81175 | 30 ft | 11 kts | 176° |
| 2026-04-29 09:20 | 34.84620 | 136.81188 | 29 ft | 12 kts | 172° |
| 2026-04-29 09:20 | 34.84537 | 136.81207 | 27 ft | 12 kts | 170° |
| 2026-04-29 09:21 | 34.84455 | 136.81192 | 27 ft | 12 kts | 224° |
| 2026-04-29 09:21 | 34.84438 | 136.81132 | 30 ft | 12 kts | 256° |
| 2026-04-29 09:21 | 34.84419 | 136.81029 | 25 ft | 13 kts | 258° |
| 2026-04-29 09:21 | 34.84438 | 136.80891 | 29 ft | 13 kts | 320° |
| 2026-04-29 09:22 | 34.84492 | 136.80862 | 27 ft | 16 kts | 343° |
| 2026-04-29 09:22 | 34.85064 | 136.80720 | 27 ft | 114 kts | 349° |
| 2026-04-29 09:22 | 34.86068 | 136.80480 | 134 ft | 168 kts | 347° |
| 2026-04-29 09:22 | 34.87232 | 136.80189 | 924 ft | 175 kts | 346° |
| 2026-04-29 09:23 | 34.87979 | 136.79835 | 1266 ft | 177 kts | 322° |
| 2026-04-29 09:23 | 34.88627 | 136.78522 | 1440 ft | 198 kts | 279° |
| 2026-04-29 09:23 | 34.88272 | 136.76808 | 1587 ft | 229 kts | 237° |
| 2026-04-29 09:23 | 34.87004 | 136.75493 | 1816 ft | 251 kts | 217° |
| 2026-04-29 09:24 | 34.85621 | 136.74142 | 2288 ft | 257 kts | 229° |
| 2026-04-29 09:24 | 34.84350 | 136.72595 | 2878 ft | 262 kts | 223° |
| 2026-04-29 09:24 | 34.82108 | 136.71384 | 3715 ft | 277 kts | 189° |
| 2026-04-29 09:24 | 34.80803 | 136.71461 | 4221 ft | 280 kts | 173° |
| 2026-04-29 09:25 | 34.78928 | 136.71947 | 4963 ft | 279 kts | 171° |
| 2026-04-29 09:25 | 34.77034 | 136.72451 | 5610 ft | 278 kts | 176° |
| 2026-04-29 09:25 | 34.75128 | 136.72428 | 6106 ft | 274 kts | 195° |
| 2026-04-29 09:25 | 34.73251 | 136.72008 | 6693 ft | 274 kts | 198° |
| 2026-04-29 09:26 | 34.71379 | 136.71536 | 7304 ft | 275 kts | 199° |
| 2026-04-29 09:26 | 34.69506 | 136.71065 | 7926 ft | 276 kts | 199° |
| 2026-04-29 09:26 | 34.67625 | 136.70595 | 8541 ft | 276 kts | 199° |
| 2026-04-29 09:26 | 34.65741 | 136.70127 | 9187 ft | 277 kts | 199° |
| 2026-04-29 09:27 | 34.63847 | 136.69658 | 9821 ft | 278 kts | 200° |
| 2026-04-29 09:27 | 34.61942 | 136.69185 | 10304 ft | 284 kts | 200° |
| 2026-04-29 09:27 | 34.59957 | 136.68686 | 10547 ft | 298 kts | 199° |
| 2026-04-29 09:27 | 34.57907 | 136.68173 | 10766 ft | 312 kts | 199° |
| 2026-04-29 09:28 | 34.55731 | 136.67633 | 10992 ft | 326 kts | 199° |
| 2026-04-29 09:28 | 34.53464 | 136.67074 | 11201 ft | 339 kts | 199° |
| 2026-04-29 09:28 | 34.51114 | 136.66495 | 11412 ft | 351 kts | 198° |
| 2026-04-29 09:28 | 34.48678 | 136.65897 | 11614 ft | 363 kts | 198° |
| 2026-04-29 09:29 | 34.46178 | 136.65285 | 11918 ft | 370 kts | 198° |
| 2026-04-29 09:29 | 34.41100 | 136.64047 | 12854 ft | 373 kts | 199° |
| 2026-04-29 09:29 | 34.38548 | 136.63423 | 13361 ft | 375 kts | 199° |
| 2026-04-29 09:30 | 34.36021 | 136.62806 | 13840 ft | 377 kts | 199° |
| 2026-04-29 09:30 | 34.33448 | 136.62179 | 14243 ft | 378 kts | 199° |
| 2026-04-29 09:30 | 34.30862 | 136.61537 | 14597 ft | 380 kts | 199° |
| 2026-04-29 09:30 | 34.28269 | 136.60900 | 14976 ft | 382 kts | 199° |
| 2026-04-29 09:31 | 34.25658 | 136.60267 | 15369 ft | 384 kts | 199° |
| 2026-04-29 09:31 | 34.23037 | 136.59619 | 15760 ft | 384 kts | 200° |
| 2026-04-29 09:31 | 34.20480 | 136.58733 | 16150 ft | 380 kts | 207° |
| 2026-04-29 09:31 | 34.18113 | 136.57397 | 16541 ft | 374 kts | 216° |
| 2026-04-29 09:32 | 34.14095 | 136.53641 | 17239 ft | 371 kts | 227° |
| 2026-04-29 09:32 | 34.12181 | 136.51550 | 17615 ft | 372 kts | 227° |
| 2026-04-29 09:32 | 34.10253 | 136.49447 | 17996 ft | 374 kts | 227° |
| 2026-04-29 09:33 | 34.08319 | 136.47346 | 18347 ft | 375 kts | 226° |
| 2026-04-29 09:33 | 34.06370 | 136.45237 | 18667 ft | 377 kts | 226° |
| 2026-04-29 09:33 | 34.04413 | 136.43122 | 18931 ft | 380 kts | 226° |
| 2026-04-29 09:33 | 34.02436 | 136.40990 | 19204 ft | 382 kts | 226° |
| 2026-04-29 09:34 | 34.00450 | 136.38849 | 19471 ft | 384 kts | 226° |
| 2026-04-29 09:34 | 33.98479 | 136.36728 | 19762 ft | 386 kts | 226° |
| 2026-04-29 09:34 | 33.96471 | 136.34568 | 20042 ft | 388 kts | 226° |
| 2026-04-29 09:34 | 33.94449 | 136.32395 | 20302 ft | 391 kts | 226° |
| 2026-04-29 09:35 | 33.92418 | 136.30213 | 20576 ft | 393 kts | 226° |
| 2026-04-29 09:35 | 33.90372 | 136.28018 | 20858 ft | 395 kts | 226° |
| 2026-04-29 09:35 | 33.88312 | 136.25808 | 21124 ft | 397 kts | 226° |
| 2026-04-29 09:35 | 33.86246 | 136.23593 | 21399 ft | 399 kts | 226° |
| 2026-04-29 09:36 | 33.84166 | 136.21365 | 21671 ft | 402 kts | 226° |
| 2026-04-29 09:36 | 33.82097 | 136.19151 | 21932 ft | 404 kts | 226° |
| 2026-04-29 09:36 | 33.79991 | 136.16898 | 22200 ft | 406 kts | 226° |
| 2026-04-29 09:36 | 33.77877 | 136.14638 | 22472 ft | 408 kts | 226° |
| 2026-04-29 09:37 | 33.75746 | 136.12362 | 22732 ft | 410 kts | 226° |
| 2026-04-29 09:37 | 33.73607 | 136.10078 | 22986 ft | 413 kts | 226° |
| 2026-04-29 09:37 | 33.71454 | 136.07782 | 23191 ft | 416 kts | 226° |
| 2026-04-29 09:37 | 33.69282 | 136.05466 | 23409 ft | 419 kts | 226° |
| 2026-04-29 09:38 | 33.67100 | 136.03142 | 23659 ft | 421 kts | 226° |
| 2026-04-29 09:38 | 33.64910 | 136.00812 | 23887 ft | 422 kts | 226° |
| 2026-04-29 09:38 | 33.62738 | 135.98501 | 24128 ft | 423 kts | 226° |
| 2026-04-29 09:38 | 33.60534 | 135.96159 | 24359 ft | 424 kts | 226° |
| 2026-04-29 09:39 | 33.58318 | 135.93805 | 24573 ft | 426 kts | 226° |
| 2026-04-29 09:39 | 33.56097 | 135.91447 | 24811 ft | 427 kts | 226° |
| 2026-04-29 09:39 | 33.53871 | 135.89087 | 25060 ft | 428 kts | 226° |
| 2026-04-29 09:39 | 33.51638 | 135.86721 | 25290 ft | 429 kts | 226° |
| 2026-04-29 09:40 | 33.49401 | 135.84351 | 25517 ft | 430 kts | 226° |
| 2026-04-29 09:40 | 33.47152 | 135.81971 | 25764 ft | 431 kts | 226° |
| 2026-04-29 09:40 | 33.44902 | 135.79591 | 26010 ft | 432 kts | 226° |
| 2026-04-29 09:40 | 33.42659 | 135.77249 | 26257 ft | 434 kts | 225° |
| 2026-04-29 09:41 | 33.40344 | 135.74919 | 26485 ft | 436 kts | 225° |
| 2026-04-29 09:41 | 33.37999 | 135.72606 | 26716 ft | 438 kts | 225° |
| 2026-04-29 09:41 | 33.35640 | 135.70290 | 26924 ft | 440 kts | 225° |
| 2026-04-29 09:41 | 33.33269 | 135.67959 | 27047 ft | 443 kts | 225° |
| 2026-04-29 09:42 | 33.30889 | 135.65610 | 27294 ft | 444 kts | 225° |
| 2026-04-29 09:42 | 33.28509 | 135.63255 | 27544 ft | 445 kts | 225° |
| 2026-04-29 09:42 | 33.26119 | 135.60887 | 27775 ft | 446 kts | 225° |
| 2026-04-29 09:42 | 33.23729 | 135.58516 | 28009 ft | 448 kts | 225° |
| 2026-04-29 09:43 | 33.21360 | 135.56166 | 28200 ft | 450 kts | 225° |
| 2026-04-29 09:43 | 33.18950 | 135.53776 | 28400 ft | 451 kts | 225° |
| 2026-04-29 09:43 | 33.16533 | 135.51382 | 28610 ft | 452 kts | 225° |
| 2026-04-29 09:43 | 33.14106 | 135.48981 | 28820 ft | 454 kts | 225° |
| 2026-04-29 09:44 | 33.11668 | 135.46572 | 29001 ft | 455 kts | 225° |
| 2026-04-29 09:44 | 33.09228 | 135.44162 | 29172 ft | 456 kts | 225° |
| 2026-04-29 09:44 | 33.06777 | 135.41743 | 29372 ft | 458 kts | 225° |
| 2026-04-29 09:44 | 33.04327 | 135.39326 | 29571 ft | 458 kts | 225° |
| 2026-04-29 09:45 | 33.01868 | 135.36905 | 29804 ft | 458 kts | 225° |
| 2026-04-29 09:45 | 32.99440 | 135.34512 | 29830 ft | 462 kts | 225° |
| 2026-04-29 09:45 | 32.96961 | 135.32071 | 30023 ft | 463 kts | 225° |
| 2026-04-29 09:45 | 32.94481 | 135.29634 | 30303 ft | 461 kts | 225° |
| 2026-04-29 09:46 | 32.92010 | 135.27210 | 30580 ft | 459 kts | 225° |
| 2026-04-29 09:46 | 32.89551 | 135.24799 | 30847 ft | 457 kts | 225° |
| 2026-04-29 09:46 | 32.87103 | 135.22398 | 31117 ft | 456 kts | 225° |
| 2026-04-29 09:46 | 32.84660 | 135.20004 | 31372 ft | 454 kts | 225° |
| 2026-04-29 09:47 | 32.82222 | 135.17616 | 31610 ft | 453 kts | 225° |
| 2026-04-29 09:47 | 32.79824 | 135.15268 | 31854 ft | 452 kts | 225° |
| 2026-04-29 09:47 | 32.77406 | 135.12893 | 32083 ft | 450 kts | 226° |
| 2026-04-29 09:47 | 32.75113 | 135.10386 | 32303 ft | 446 kts | 229° |
| 2026-04-29 09:48 | 32.72888 | 135.07824 | 32538 ft | 445 kts | 230° |
| 2026-04-29 09:48 | 32.70693 | 135.05241 | 32751 ft | 443 kts | 230° |
| 2026-04-29 09:48 | 32.68514 | 135.02657 | 32971 ft | 442 kts | 230° |
| 2026-04-29 09:48 | 32.66342 | 135.00082 | 33164 ft | 441 kts | 230° |
| 2026-04-29 09:49 | 32.64161 | 134.97503 | 33292 ft | 442 kts | 230° |
| 2026-04-29 09:49 | 32.61981 | 134.94939 | 33514 ft | 441 kts | 230° |
| 2026-04-29 09:49 | 32.59835 | 134.92424 | 33723 ft | 440 kts | 230° |
| 2026-04-29 09:49 | 32.57659 | 134.89881 | 33940 ft | 439 kts | 230° |
| 2026-04-29 09:50 | 32.55489 | 134.87348 | 34046 ft | 433 kts | 230° |
| 2026-04-29 09:50 | 32.53366 | 134.84877 | 34044 ft | 424 kts | 229° |
| 2026-04-29 09:50 | 32.49181 | 134.80000 | 34065 ft | 422 kts | 230° |
| 2026-04-29 09:51 | 32.44997 | 134.75119 | 34059 ft | 423 kts | 230° |
| 2026-04-29 09:51 | 32.40826 | 134.70264 | 34046 ft | 423 kts | 229° |
| 2026-04-29 09:52 | 32.36621 | 134.65380 | 34065 ft | 424 kts | 229° |
| 2026-04-29 09:52 | 32.32413 | 134.60500 | 34067 ft | 424 kts | 229° |
| 2026-04-29 09:53 | 32.28209 | 134.55633 | 34042 ft | 422 kts | 229° |
| 2026-04-29 09:53 | 32.24036 | 134.50805 | 34054 ft | 423 kts | 229° |
| 2026-04-29 09:54 | 32.19824 | 134.45941 | 34066 ft | 423 kts | 229° |
| 2026-04-29 09:54 | 32.15612 | 134.41083 | 34053 ft | 423 kts | 229° |
| 2026-04-29 09:55 | 32.11397 | 134.36228 | 34051 ft | 424 kts | 229° |
| 2026-04-29 09:55 | 32.07178 | 134.31374 | 34051 ft | 424 kts | 229° |
| 2026-04-29 09:56 | 32.02984 | 134.26558 | 34053 ft | 424 kts | 229° |
| 2026-04-29 09:56 | 31.98760 | 134.21713 | 34056 ft | 424 kts | 229° |
| 2026-04-29 09:57 | 31.94539 | 134.16877 | 34054 ft | 423 kts | 229° |
| 2026-04-29 09:57 | 31.90318 | 134.12048 | 34050 ft | 423 kts | 229° |
| 2026-04-29 09:58 | 31.86125 | 134.07257 | 34051 ft | 423 kts | 229° |
| 2026-04-29 09:58 | 31.81902 | 134.02439 | 34063 ft | 423 kts | 229° |
| 2026-04-29 09:59 | 31.77679 | 133.97627 | 34051 ft | 422 kts | 229° |
| 2026-04-29 09:59 | 31.73457 | 133.92823 | 34050 ft | 423 kts | 229° |
| 2026-04-29 10:00 | 31.69249 | 133.88040 | 34053 ft | 424 kts | 229° |
| 2026-04-29 10:00 | 31.65013 | 133.83233 | 34056 ft | 424 kts | 229° |
| 2026-04-29 10:01 | 31.60778 | 133.78434 | 34051 ft | 423 kts | 229° |
| 2026-04-29 10:01 | 31.56531 | 133.73626 | 34053 ft | 425 kts | 229° |
| 2026-04-29 10:02 | 31.52274 | 133.68814 | 34053 ft | 425 kts | 229° |
| 2026-04-29 10:02 | 31.48041 | 133.64036 | 34047 ft | 425 kts | 229° |
| 2026-04-29 10:03 | 31.43772 | 133.59221 | 34059 ft | 426 kts | 229° |
| 2026-04-29 10:03 | 31.39502 | 133.54415 | 34059 ft | 426 kts | 229° |
| 2026-04-29 10:04 | 31.35233 | 133.49616 | 34036 ft | 426 kts | 229° |
| 2026-04-29 10:04 | 31.30947 | 133.44802 | 34058 ft | 429 kts | 229° |
| 2026-04-29 10:05 | 31.26670 | 133.40004 | 34055 ft | 428 kts | 229° |
| 2026-04-29 10:05 | 31.22374 | 133.35195 | 34056 ft | 427 kts | 229° |
| 2026-04-29 10:06 | 31.18078 | 133.30391 | 34059 ft | 429 kts | 228° |
| 2026-04-29 10:06 | 31.13765 | 133.25572 | 34053 ft | 429 kts | 228° |
| 2026-04-29 10:07 | 31.09472 | 133.20784 | 34056 ft | 430 kts | 228° |
| 2026-04-29 10:07 | 31.05147 | 133.15965 | 34056 ft | 431 kts | 228° |
| 2026-04-29 10:08 | 31.00807 | 133.11137 | 34056 ft | 432 kts | 228° |
| 2026-04-29 10:08 | 30.96455 | 133.06303 | 34056 ft | 432 kts | 228° |
| 2026-04-29 10:09 | 30.92135 | 133.01511 | 34054 ft | 433 kts | 228° |
| 2026-04-29 10:09 | 30.87761 | 132.96661 | 34055 ft | 435 kts | 228° |
| 2026-04-29 10:10 | 30.83382 | 132.91816 | 34056 ft | 435 kts | 228° |
| 2026-04-29 10:10 | 30.78994 | 132.86968 | 34047 ft | 435 kts | 228° |
| 2026-04-29 10:11 | 30.74600 | 132.82118 | 34056 ft | 437 kts | 228° |
| 2026-04-29 10:11 | 30.70217 | 132.77286 | 34056 ft | 437 kts | 228° |
| 2026-04-29 10:12 | 30.65801 | 132.72426 | 34058 ft | 437 kts | 228° |
| 2026-04-29 10:12 | 30.61385 | 132.67572 | 34056 ft | 437 kts | 228° |
| 2026-04-29 10:13 | 30.56965 | 132.62720 | 34056 ft | 437 kts | 228° |
| 2026-04-29 10:13 | 30.52582 | 132.57911 | 34056 ft | 436 kts | 227° |
| 2026-04-29 10:14 | 30.48181 | 132.53093 | 34055 ft | 436 kts | 227° |
| 2026-04-29 10:14 | 30.43771 | 132.48270 | 34056 ft | 436 kts | 227° |
| 2026-04-29 10:15 | 30.39353 | 132.43445 | 34056 ft | 436 kts | 227° |
| 2026-04-29 10:15 | 30.34962 | 132.38655 | 34053 ft | 436 kts | 227° |
| 2026-04-29 10:16 | 30.30555 | 132.33854 | 34058 ft | 435 kts | 227° |
| 2026-04-29 10:16 | 30.26152 | 132.29066 | 34056 ft | 435 kts | 227° |
| 2026-04-29 10:17 | 30.21742 | 132.24274 | 34056 ft | 435 kts | 227° |
| 2026-04-29 10:17 | 30.17330 | 132.19486 | 34062 ft | 435 kts | 227° |
| 2026-04-29 10:18 | 30.12955 | 132.14744 | 34053 ft | 434 kts | 227° |
| 2026-04-29 10:18 | 30.08553 | 132.09981 | 34055 ft | 433 kts | 227° |
| 2026-04-29 10:19 | 30.04151 | 132.05222 | 34054 ft | 434 kts | 227° |
| 2026-04-29 10:19 | 29.99745 | 132.00465 | 34056 ft | 434 kts | 227° |
| 2026-04-29 10:20 | 29.95370 | 131.95748 | 34056 ft | 433 kts | 227° |
| 2026-04-29 10:20 | 29.90970 | 131.91010 | 34040 ft | 432 kts | 226° |
| 2026-04-29 10:21 | 29.86568 | 131.86276 | 34053 ft | 434 kts | 226° |
| 2026-04-29 10:21 | 29.82204 | 131.81482 | 34046 ft | 431 kts | 232° |
| 2026-04-29 10:22 | 29.78647 | 131.76017 | 34055 ft | 429 kts | 237° |
| 2026-04-29 10:22 | 29.75254 | 131.70381 | 34048 ft | 429 kts | 238° |
| 2026-04-29 10:23 | 29.71873 | 131.64710 | 34050 ft | 430 kts | 238° |
| 2026-04-29 10:23 | 29.68470 | 131.59042 | 34050 ft | 430 kts | 238° |
| 2026-04-29 10:24 | 29.65080 | 131.53428 | 34052 ft | 430 kts | 237° |
| 2026-04-29 10:24 | 29.61663 | 131.47781 | 34050 ft | 431 kts | 237° |
| 2026-04-29 10:25 | 29.58237 | 131.42127 | 34050 ft | 431 kts | 237° |
| 2026-04-29 10:25 | 29.54805 | 131.36470 | 34050 ft | 431 kts | 237° |
| 2026-04-29 10:26 | 29.51397 | 131.30860 | 34051 ft | 431 kts | 237° |
| 2026-04-29 10:26 | 29.47963 | 131.25213 | 34056 ft | 432 kts | 237° |
| 2026-04-29 10:27 | 29.42793 | 131.16731 | 34058 ft | 433 kts | 237° |
| 2026-04-29 10:28 | 29.39340 | 131.11074 | 34044 ft | 433 kts | 237° |
| 2026-04-29 10:28 | 29.35909 | 131.05460 | 34040 ft | 432 kts | 237° |
| 2026-04-29 10:29 | 29.32456 | 130.99818 | 34058 ft | 433 kts | 237° |
| 2026-04-29 10:29 | 29.28998 | 130.94177 | 34038 ft | 433 kts | 237° |
| 2026-04-29 10:30 | 29.25537 | 130.88538 | 34042 ft | 433 kts | 237° |
| 2026-04-29 10:30 | 29.22077 | 130.82908 | 34042 ft | 432 kts | 237° |
| 2026-04-29 10:31 | 29.18642 | 130.77326 | 34046 ft | 432 kts | 237° |
| 2026-04-29 10:31 | 29.15180 | 130.71708 | 34043 ft | 432 kts | 237° |
| 2026-04-29 10:32 | 29.11716 | 130.66092 | 34053 ft | 432 kts | 237° |
| 2026-04-29 10:32 | 29.08267 | 130.60512 | 34045 ft | 433 kts | 237° |
| 2026-04-29 10:33 | 29.04793 | 130.54897 | 34046 ft | 433 kts | 237° |
| 2026-04-29 10:33 | 29.01310 | 130.49276 | 34045 ft | 433 kts | 237° |
| 2026-04-29 10:34 | 28.97830 | 130.43667 | 34047 ft | 433 kts | 237° |
| 2026-04-29 10:34 | 28.94346 | 130.38058 | 34043 ft | 433 kts | 237° |
| 2026-04-29 10:35 | 28.90871 | 130.32471 | 34045 ft | 435 kts | 237° |
| 2026-04-29 10:35 | 28.87372 | 130.26853 | 34048 ft | 435 kts | 237° |
| 2026-04-29 10:36 | 28.83867 | 130.21234 | 34046 ft | 434 kts | 237° |
| 2026-04-29 10:36 | 28.80363 | 130.15625 | 34032 ft | 434 kts | 237° |
| 2026-04-29 10:37 | 28.76869 | 130.10036 | 34039 ft | 437 kts | 237° |
| 2026-04-29 10:37 | 28.73341 | 130.04402 | 34042 ft | 437 kts | 237° |
| 2026-04-29 10:38 | 28.69809 | 129.98770 | 34040 ft | 436 kts | 237° |
| 2026-04-29 10:38 | 28.66282 | 129.93154 | 34024 ft | 436 kts | 237° |
| 2026-04-29 10:39 | 28.62742 | 129.87522 | 34033 ft | 438 kts | 237° |
| 2026-04-29 10:39 | 28.59215 | 129.81919 | 34028 ft | 439 kts | 237° |
| 2026-04-29 10:40 | 28.55663 | 129.76286 | 34023 ft | 437 kts | 237° |
| 2026-04-29 10:40 | 28.52119 | 129.70672 | 34010 ft | 437 kts | 237° |
| 2026-04-29 10:41 | 28.48562 | 129.65045 | 34022 ft | 439 kts | 237° |
| 2026-04-29 10:41 | 28.45013 | 129.59458 | 34019 ft | 440 kts | 235° |
| 2026-04-29 10:42 | 28.41098 | 129.54102 | 34024 ft | 440 kts | 232° |
| 2026-04-29 10:42 | 28.37109 | 129.48853 | 34013 ft | 439 kts | 232° |
| 2026-04-29 10:43 | 28.33095 | 129.43603 | 34032 ft | 441 kts | 232° |
| 2026-04-29 10:43 | 28.29100 | 129.38380 | 34032 ft | 441 kts | 232° |
| 2026-04-29 10:44 | 28.25081 | 129.33127 | 34037 ft | 440 kts | 232° |
| 2026-04-29 10:44 | 28.21077 | 129.27896 | 34021 ft | 438 kts | 232° |
| 2026-04-29 10:45 | 28.17069 | 129.22662 | 34034 ft | 440 kts | 232° |
| 2026-04-29 10:45 | 28.13048 | 129.17424 | 34031 ft | 441 kts | 232° |
| 2026-04-29 10:46 | 28.09051 | 129.12223 | 34041 ft | 441 kts | 232° |
| 2026-04-29 10:46 | 28.05034 | 129.07000 | 34021 ft | 438 kts | 231° |
| 2026-04-29 10:47 | 28.01024 | 129.01793 | 34030 ft | 439 kts | 231° |
| 2026-04-29 10:47 | 27.97010 | 128.96587 | 34032 ft | 439 kts | 231° |
| 2026-04-29 10:48 | 27.92990 | 128.91381 | 34033 ft | 439 kts | 231° |
| 2026-04-29 10:48 | 27.89001 | 128.86220 | 34013 ft | 438 kts | 231° |
| 2026-04-29 10:49 | 27.84970 | 128.81011 | 34026 ft | 441 kts | 231° |
| 2026-04-29 10:49 | 27.80924 | 128.75790 | 34031 ft | 442 kts | 231° |
| 2026-04-29 10:50 | 27.76876 | 128.70573 | 34021 ft | 442 kts | 231° |
| 2026-04-29 10:50 | 27.72852 | 128.65393 | 34028 ft | 442 kts | 231° |
| 2026-04-29 10:51 | 27.68804 | 128.60188 | 34014 ft | 440 kts | 231° |
| 2026-04-29 10:51 | 27.64764 | 128.55001 | 34011 ft | 440 kts | 230° |
| 2026-04-29 10:52 | 27.60723 | 128.49818 | 34012 ft | 440 kts | 230° |
| 2026-04-29 10:52 | 27.56710 | 128.44677 | 33998 ft | 440 kts | 231° |
| 2026-04-29 10:53 | 27.52650 | 128.39482 | 34021 ft | 443 kts | 231° |
| 2026-04-29 10:53 | 27.48578 | 128.34277 | 34018 ft | 443 kts | 231° |
| 2026-04-29 10:54 | 27.44497 | 128.29069 | 34026 ft | 443 kts | 231° |
| 2026-04-29 10:54 | 27.40443 | 128.23901 | 34019 ft | 443 kts | 231° |
| 2026-04-29 10:55 | 27.36362 | 128.18707 | 34018 ft | 442 kts | 231° |
| 2026-04-29 10:55 | 27.32294 | 128.13533 | 34016 ft | 441 kts | 231° |
| 2026-04-29 10:56 | 27.28228 | 128.08367 | 34016 ft | 441 kts | 231° |
| 2026-04-29 10:56 | 27.24189 | 128.03242 | 34018 ft | 441 kts | 231° |
| 2026-04-29 10:57 | 27.20118 | 127.98084 | 34004 ft | 441 kts | 231° |
| 2026-04-29 10:57 | 27.16052 | 127.92939 | 34014 ft | 440 kts | 231° |
| 2026-04-29 10:58 | 27.11992 | 127.87806 | 34003 ft | 439 kts | 231° |
| 2026-04-29 10:58 | 27.07934 | 127.82681 | 34003 ft | 439 kts | 231° |
| 2026-04-29 10:59 | 27.03898 | 127.77587 | 34009 ft | 440 kts | 231° |
| 2026-04-29 10:59 | 26.99830 | 127.72463 | 34006 ft | 440 kts | 231° |
| 2026-04-29 11:00 | 26.95755 | 127.67338 | 34012 ft | 440 kts | 231° |
| 2026-04-29 11:00 | 26.91689 | 127.62229 | 34009 ft | 439 kts | 231° |
| 2026-04-29 11:01 | 26.87622 | 127.57122 | 34007 ft | 439 kts | 231° |
| 2026-04-29 11:01 | 26.83577 | 127.52049 | 34004 ft | 440 kts | 231° |
| 2026-04-29 11:02 | 26.79498 | 127.46941 | 34011 ft | 440 kts | 231° |
| 2026-04-29 11:02 | 26.75427 | 127.41850 | 33991 ft | 439 kts | 231° |
| 2026-04-29 11:03 | 26.71353 | 127.36759 | 33983 ft | 439 kts | 231° |
| 2026-04-29 11:03 | 26.67311 | 127.31714 | 33994 ft | 439 kts | 231° |
| 2026-04-29 11:04 | 26.63234 | 127.26632 | 33996 ft | 439 kts | 231° |
| 2026-04-29 11:04 | 26.59156 | 127.21555 | 33994 ft | 439 kts | 231° |
| 2026-04-29 11:05 | 26.55071 | 127.16473 | 33991 ft | 440 kts | 231° |
| 2026-04-29 11:05 | 26.50973 | 127.11382 | 33987 ft | 442 kts | 231° |
| 2026-04-29 11:06 | 26.46887 | 127.06311 | 33992 ft | 443 kts | 231° |
| 2026-04-29 11:06 | 26.42764 | 127.01202 | 33992 ft | 443 kts | 231° |
| 2026-04-29 11:07 | 26.38639 | 126.96095 | 33991 ft | 442 kts | 231° |
| 2026-04-29 11:07 | 26.34519 | 126.91003 | 33986 ft | 443 kts | 231° |
| 2026-04-29 11:08 | 26.30403 | 126.85918 | 33983 ft | 445 kts | 231° |
| 2026-04-29 11:08 | 26.26253 | 126.80798 | 33984 ft | 445 kts | 231° |
| 2026-04-29 11:09 | 26.22098 | 126.75677 | 33986 ft | 445 kts | 231° |
| 2026-04-29 11:09 | 26.17947 | 126.70566 | 33975 ft | 445 kts | 230° |
| 2026-04-29 11:10 | 26.13810 | 126.65480 | 33979 ft | 447 kts | 230° |
| 2026-04-29 11:10 | 26.09636 | 126.60355 | 33982 ft | 447 kts | 230° |
| 2026-04-29 11:11 | 26.05459 | 126.55231 | 33984 ft | 447 kts | 230° |
| 2026-04-29 11:11 | 26.01278 | 126.50109 | 33983 ft | 447 kts | 230° |
| 2026-04-29 11:12 | 25.97128 | 126.45030 | 33980 ft | 447 kts | 230° |
| 2026-04-29 11:12 | 25.92950 | 126.39922 | 33976 ft | 447 kts | 230° |
| 2026-04-29 11:13 | 25.88769 | 126.34817 | 33976 ft | 447 kts | 230° |
| 2026-04-29 11:13 | 25.84616 | 126.29752 | 33977 ft | 447 kts | 230° |
| 2026-04-29 11:14 | 25.80441 | 126.24666 | 33976 ft | 446 kts | 230° |
| 2026-04-29 11:14 | 25.76260 | 126.19578 | 33977 ft | 445 kts | 230° |
| 2026-04-29 11:15 | 25.72091 | 126.14510 | 33977 ft | 445 kts | 230° |
| 2026-04-29 11:15 | 25.67922 | 126.09447 | 33980 ft | 445 kts | 230° |
| 2026-04-29 11:16 | 25.63779 | 126.04423 | 33976 ft | 445 kts | 230° |
| 2026-04-29 11:16 | 25.59596 | 125.99354 | 33972 ft | 447 kts | 230° |
| 2026-04-29 11:17 | 25.55389 | 125.94263 | 33974 ft | 448 kts | 230° |
| 2026-04-29 11:17 | 25.51202 | 125.89202 | 33976 ft | 448 kts | 230° |
| 2026-04-29 11:18 | 25.46990 | 125.84117 | 33976 ft | 448 kts | 230° |
| 2026-04-29 11:18 | 25.42772 | 125.79030 | 33978 ft | 449 kts | 230° |
| 2026-04-29 11:19 | 25.38540 | 125.73931 | 33973 ft | 450 kts | 230° |
| 2026-04-29 11:19 | 25.34296 | 125.68823 | 33968 ft | 451 kts | 230° |
| 2026-04-29 11:20 | 25.30076 | 125.63751 | 33966 ft | 451 kts | 230° |
| 2026-04-29 11:20 | 25.25824 | 125.58645 | 33967 ft | 451 kts | 230° |
| 2026-04-29 11:21 | 25.21622 | 125.53496 | 33966 ft | 451 kts | 231° |
| 2026-04-29 11:21 | 25.17442 | 125.48315 | 33972 ft | 452 kts | 231° |
| 2026-04-29 11:22 | 25.13254 | 125.43144 | 33966 ft | 452 kts | 231° |
| 2026-04-29 11:22 | 25.09086 | 125.38019 | 33961 ft | 452 kts | 231° |
| 2026-04-29 11:23 | 25.04873 | 125.32852 | 33953 ft | 452 kts | 231° |
| 2026-04-29 11:23 | 25.00666 | 125.27697 | 33951 ft | 452 kts | 231° |
| 2026-04-29 11:24 | 24.96488 | 125.22582 | 33945 ft | 452 kts | 231° |
| 2026-04-29 11:24 | 24.92280 | 125.17435 | 33939 ft | 452 kts | 231° |
| 2026-04-29 11:25 | 24.88066 | 125.12288 | 33940 ft | 452 kts | 231° |
| 2026-04-29 11:25 | 24.83852 | 125.07147 | 33938 ft | 452 kts | 231° |
| 2026-04-29 11:26 | 24.77552 | 124.99469 | 33942 ft | 453 kts | 231° |
| 2026-04-29 11:26 | 24.73334 | 124.94335 | 33948 ft | 452 kts | 230° |
| 2026-04-29 11:27 | 24.69113 | 124.89206 | 33953 ft | 452 kts | 230° |
| 2026-04-29 11:27 | 24.64889 | 124.84078 | 33957 ft | 452 kts | 231° |
| 2026-04-29 11:28 | 24.60672 | 124.78963 | 33960 ft | 451 kts | 231° |
| 2026-04-29 11:28 | 24.56485 | 124.73890 | 33960 ft | 451 kts | 231° |
| 2026-04-29 11:29 | 24.52267 | 124.68783 | 33958 ft | 451 kts | 230° |
| 2026-04-29 11:29 | 24.48048 | 124.63683 | 33957 ft | 451 kts | 230° |
| 2026-04-29 11:30 | 24.43838 | 124.58602 | 33951 ft | 449 kts | 231° |
| 2026-04-29 11:30 | 24.39672 | 124.53576 | 33943 ft | 448 kts | 231° |
| 2026-04-29 11:31 | 24.35481 | 124.48523 | 33934 ft | 448 kts | 231° |
| 2026-04-29 11:31 | 24.31278 | 124.43462 | 33928 ft | 449 kts | 231° |
| 2026-04-29 11:32 | 24.27071 | 124.38402 | 33923 ft | 449 kts | 231° |
| 2026-04-29 11:32 | 24.22887 | 124.33379 | 33927 ft | 444 kts | 231° |
| 2026-04-29 11:33 | 24.18755 | 124.28421 | 33931 ft | 443 kts | 231° |
| 2026-04-29 11:33 | 24.14593 | 124.23431 | 33937 ft | 444 kts | 231° |
| 2026-04-29 11:34 | 24.10430 | 124.18442 | 33948 ft | 445 kts | 231° |
| 2026-04-29 11:34 | 24.06246 | 124.13437 | 33956 ft | 446 kts | 231° |
| 2026-04-29 11:35 | 24.02085 | 124.08466 | 33952 ft | 446 kts | 231° |
| 2026-04-29 11:35 | 23.97893 | 124.03462 | 33952 ft | 446 kts | 231° |
| 2026-04-29 11:36 | 23.93955 | 123.98261 | 33956 ft | 443 kts | 237° |
| 2026-04-29 11:36 | 23.90434 | 123.92723 | 33955 ft | 444 kts | 238° |
| 2026-04-29 11:37 | 23.86985 | 123.87157 | 33947 ft | 444 kts | 238° |
| 2026-04-29 11:37 | 23.83542 | 123.81603 | 33953 ft | 440 kts | 238° |
| 2026-04-29 11:38 | 23.80099 | 123.76072 | 33949 ft | 441 kts | 238° |
| 2026-04-29 11:38 | 23.76642 | 123.70533 | 33949 ft | 442 kts | 238° |
| 2026-04-29 11:39 | 23.73171 | 123.64980 | 33948 ft | 445 kts | 238° |
| 2026-04-29 11:39 | 23.69687 | 123.59412 | 33948 ft | 448 kts | 238° |
| 2026-04-29 11:40 | 23.66181 | 123.53817 | 33939 ft | 443 kts | 238° |
| 2026-04-29 11:40 | 23.62718 | 123.48298 | 33947 ft | 440 kts | 238° |
| 2026-04-29 11:41 | 23.59256 | 123.42782 | 33941 ft | 441 kts | 238° |
| 2026-04-29 11:41 | 23.55806 | 123.37290 | 33939 ft | 442 kts | 238° |
| 2026-04-29 11:42 | 23.52325 | 123.31756 | 33941 ft | 443 kts | 238° |
| 2026-04-29 11:42 | 23.48829 | 123.26206 | 33932 ft | 444 kts | 238° |
| 2026-04-29 11:43 | 23.45333 | 123.20662 | 33939 ft | 444 kts | 238° |
| 2026-04-29 11:43 | 23.41832 | 123.15116 | 33941 ft | 445 kts | 238° |
| 2026-04-29 11:44 | 23.38344 | 123.09595 | 33938 ft | 446 kts | 238° |
| 2026-04-29 11:44 | 23.34818 | 123.04020 | 33933 ft | 448 kts | 238° |
| 2026-04-29 11:45 | 23.31279 | 122.98436 | 33936 ft | 449 kts | 238° |
| 2026-04-29 11:45 | 23.27723 | 122.92833 | 33931 ft | 452 kts | 238° |
| 2026-04-29 11:46 | 23.24142 | 122.87187 | 33932 ft | 455 kts | 238° |
| 2026-04-29 11:46 | 23.20568 | 122.81564 | 33928 ft | 455 kts | 238° |
| 2026-04-29 11:47 | 23.16968 | 122.75907 | 33924 ft | 455 kts | 238° |
| 2026-04-29 11:47 | 23.13360 | 122.70243 | 33922 ft | 456 kts | 237° |
| 2026-04-29 11:48 | 23.09741 | 122.64568 | 33911 ft | 457 kts | 237° |
| 2026-04-29 11:48 | 23.06128 | 122.58909 | 33920 ft | 460 kts | 237° |
| 2026-04-29 11:49 | 23.02474 | 122.53192 | 33919 ft | 461 kts | 237° |
| 2026-04-29 11:49 | 22.98819 | 122.47480 | 33916 ft | 461 kts | 237° |
| 2026-04-29 11:50 | 22.95160 | 122.41769 | 33919 ft | 461 kts | 237° |
| 2026-04-29 11:50 | 22.91529 | 122.36106 | 33919 ft | 461 kts | 237° |
| 2026-04-29 11:51 | 22.87866 | 122.30399 | 33918 ft | 461 kts | 237° |
| 2026-04-29 11:51 | 22.84195 | 122.24688 | 33916 ft | 462 kts | 237° |
| 2026-04-29 11:52 | 22.80520 | 122.18976 | 33918 ft | 462 kts | 237° |
| 2026-04-29 11:52 | 22.76869 | 122.13306 | 33919 ft | 462 kts | 237° |
| 2026-04-29 11:53 | 22.73193 | 122.07606 | 33923 ft | 462 kts | 237° |
| 2026-04-29 11:53 | 22.69511 | 122.01902 | 33916 ft | 461 kts | 237° |
| 2026-04-29 11:54 | 22.65830 | 121.96203 | 33909 ft | 462 kts | 237° |
| 2026-04-29 11:54 | 22.62143 | 121.90504 | 33909 ft | 462 kts | 237° |
| 2026-04-29 11:55 | 22.58476 | 121.84841 | 33900 ft | 462 kts | 237° |
| 2026-04-29 11:55 | 22.54786 | 121.79149 | 33901 ft | 462 kts | 237° |
| 2026-04-29 11:56 | 22.51094 | 121.73460 | 33893 ft | 462 kts | 237° |
| 2026-04-29 11:56 | 22.47402 | 121.67778 | 33891 ft | 462 kts | 237° |
| 2026-04-29 11:57 | 22.43733 | 121.62135 | 33884 ft | 462 kts | 237° |
| 2026-04-29 11:57 | 22.40033 | 121.56453 | 33893 ft | 462 kts | 237° |
| 2026-04-29 11:58 | 22.36339 | 121.50784 | 33898 ft | 462 kts | 237° |
| 2026-04-29 11:58 | 22.32637 | 121.45110 | 33901 ft | 462 kts | 236° |
| 2026-04-29 11:59 | 22.28934 | 121.39441 | 33894 ft | 462 kts | 236° |
| 2026-04-29 11:59 | 22.25257 | 121.33816 | 33920 ft | 461 kts | 236° |
| 2026-04-29 12:00 | 22.21555 | 121.28160 | 33921 ft | 461 kts | 236° |
| 2026-04-29 12:00 | 22.17854 | 121.22512 | 33934 ft | 461 kts | 236° |
| 2026-04-29 12:01 | 22.14148 | 121.16861 | 33941 ft | 461 kts | 236° |
| 2026-04-29 12:01 | 22.10467 | 121.11255 | 33959 ft | 461 kts | 236° |
| 2026-04-29 12:02 | 22.06758 | 121.05612 | 33948 ft | 461 kts | 236° |
| 2026-04-29 12:02 | 22.03044 | 120.99968 | 33961 ft | 461 kts | 236° |
| 2026-04-29 12:03 | 21.99333 | 120.94326 | 33963 ft | 461 kts | 236° |
| 2026-04-29 12:03 | 21.95622 | 120.88684 | 33964 ft | 461 kts | 236° |
| 2026-04-29 12:04 | 21.92626 | 120.82669 | 33959 ft | 459 kts | 250° |
| 2026-04-29 12:04 | 21.90907 | 120.76048 | 33960 ft | 460 kts | 256° |
| 2026-04-29 12:05 | 21.89461 | 120.69333 | 33964 ft | 460 kts | 256° |
| 2026-04-29 12:05 | 21.88042 | 120.62628 | 33962 ft | 460 kts | 256° |
| 2026-04-29 12:06 | 21.86605 | 120.55956 | 33971 ft | 460 kts | 256° |
| 2026-04-29 12:06 | 21.85143 | 120.49259 | 33966 ft | 460 kts | 256° |
| 2026-04-29 12:07 | 21.83675 | 120.42564 | 33963 ft | 459 kts | 256° |
| 2026-04-29 12:07 | 21.82206 | 120.35874 | 33959 ft | 460 kts | 256° |
| 2026-04-29 12:08 | 21.80743 | 120.29222 | 33960 ft | 460 kts | 256° |
| 2026-04-29 12:08 | 21.79267 | 120.22527 | 33965 ft | 460 kts | 256° |
| 2026-04-29 12:09 | 21.77789 | 120.15831 | 33962 ft | 460 kts | 256° |
| 2026-04-29 12:09 | 21.76310 | 120.09144 | 33967 ft | 460 kts | 256° |
| 2026-04-29 12:10 | 21.74838 | 120.02505 | 33971 ft | 459 kts | 256° |
| 2026-04-29 12:10 | 21.73353 | 119.95822 | 33971 ft | 459 kts | 256° |
| 2026-04-29 12:11 | 21.71867 | 119.89142 | 33974 ft | 459 kts | 255° |
| 2026-04-29 12:11 | 21.70629 | 119.83593 | 33970 ft | 459 kts | 255° |
| 2026-04-29 12:12 | 21.68899 | 119.75846 | 33974 ft | 459 kts | 255° |
| 2026-04-29 12:12 | 21.67402 | 119.69163 | 33957 ft | 459 kts | 255° |
| 2026-04-29 12:13 | 21.66149 | 119.63576 | 33975 ft | 459 kts | 255° |
| 2026-04-29 12:13 | 21.64659 | 119.56948 | 33956 ft | 459 kts | 255° |
| 2026-04-29 12:14 | 21.63159 | 119.50285 | 33965 ft | 458 kts | 256° |
| 2026-04-29 12:14 | 21.61657 | 119.43628 | 33967 ft | 458 kts | 256° |
| 2026-04-29 12:15 | 21.60155 | 119.36987 | 33966 ft | 458 kts | 256° |
| 2026-04-29 12:15 | 21.58661 | 119.30390 | 33967 ft | 458 kts | 255° |
| 2026-04-29 12:16 | 21.57152 | 119.23743 | 33976 ft | 458 kts | 255° |
| 2026-04-29 12:16 | 21.55645 | 119.17114 | 33969 ft | 457 kts | 255° |
| 2026-04-29 12:17 | 21.54130 | 119.10466 | 33959 ft | 457 kts | 255° |
| 2026-04-29 12:17 | 21.52626 | 119.03877 | 33961 ft | 457 kts | 255° |
| 2026-04-29 12:18 | 21.51108 | 118.97238 | 33971 ft | 457 kts | 255° |
| 2026-04-29 12:18 | 21.49589 | 118.90611 | 33967 ft | 457 kts | 255° |
| 2026-04-29 12:19 | 21.48066 | 118.83978 | 33966 ft | 457 kts | 255° |
| 2026-04-29 12:19 | 21.46541 | 118.77351 | 33964 ft | 457 kts | 255° |
| 2026-04-29 12:20 | 21.45024 | 118.70767 | 33963 ft | 457 kts | 255° |
| 2026-04-29 12:20 | 21.43493 | 118.64138 | 33964 ft | 458 kts | 256° |
| 2026-04-29 12:21 | 21.41953 | 118.57487 | 33965 ft | 460 kts | 255° |
| 2026-04-29 12:21 | 21.40424 | 118.50883 | 33965 ft | 458 kts | 255° |
| 2026-04-29 12:22 | 21.38885 | 118.44260 | 33951 ft | 457 kts | 255° |
| 2026-04-29 12:22 | 21.37342 | 118.37637 | 33955 ft | 457 kts | 255° |
| 2026-04-29 12:23 | 21.35796 | 118.31009 | 33960 ft | 459 kts | 255° |
| 2026-04-29 12:23 | 21.34254 | 118.24409 | 33961 ft | 459 kts | 255° |
| 2026-04-29 12:24 | 21.32698 | 118.17763 | 33955 ft | 460 kts | 255° |
| 2026-04-29 12:24 | 21.31139 | 118.11115 | 33966 ft | 460 kts | 255° |
| 2026-04-29 12:25 | 21.29576 | 118.04469 | 33975 ft | 461 kts | 256° |
| 2026-04-29 12:26 | 21.27215 | 117.94445 | 33960 ft | 465 kts | 256° |
| 2026-04-29 12:26 | 21.25627 | 117.87718 | 33961 ft | 466 kts | 256° |
| 2026-04-29 12:27 | 21.24041 | 117.81009 | 33958 ft | 462 kts | 255° |
| 2026-04-29 12:27 | 21.22462 | 117.74348 | 33958 ft | 460 kts | 255° |
| 2026-04-29 12:28 | 21.20880 | 117.67692 | 33958 ft | 460 kts | 255° |
| 2026-04-29 12:28 | 21.19309 | 117.61089 | 33954 ft | 461 kts | 255° |
| 2026-04-29 12:29 | 21.17724 | 117.54440 | 33952 ft | 461 kts | 255° |
| 2026-04-29 12:29 | 21.15677 | 117.47953 | 33966 ft | 460 kts | 246° |
| 2026-04-29 12:30 | 21.12950 | 117.41733 | 33961 ft | 464 kts | 245° |
| 2026-04-29 12:30 | 21.10121 | 117.35554 | 33969 ft | 465 kts | 244° |
| 2026-04-29 12:31 | 21.07264 | 117.29336 | 33949 ft | 465 kts | 244° |
| 2026-04-29 12:31 | 21.04420 | 117.23120 | 33960 ft | 463 kts | 244° |
| 2026-04-29 12:32 | 21.01603 | 117.16956 | 33961 ft | 460 kts | 244° |
| 2026-04-29 12:32 | 20.98804 | 117.10835 | 33956 ft | 462 kts | 244° |
| 2026-04-29 12:33 | 20.95975 | 117.04657 | 33948 ft | 463 kts | 244° |
| 2026-04-29 12:33 | 20.93139 | 116.98470 | 33956 ft | 463 kts | 244° |
| 2026-04-29 12:34 | 20.90306 | 116.92297 | 33947 ft | 463 kts | 244° |
| 2026-04-29 12:34 | 20.87488 | 116.86165 | 33958 ft | 463 kts | 244° |
| 2026-04-29 12:35 | 20.84631 | 116.79954 | 33937 ft | 467 kts | 244° |
| 2026-04-29 12:35 | 20.81775 | 116.73751 | 33946 ft | 463 kts | 244° |
| 2026-04-29 12:36 | 20.78936 | 116.67597 | 33952 ft | 461 kts | 244° |
| 2026-04-29 12:36 | 20.76101 | 116.61455 | 33954 ft | 461 kts | 244° |
| 2026-04-29 12:37 | 20.73280 | 116.55351 | 33953 ft | 461 kts | 244° |
| 2026-04-29 12:37 | 20.70433 | 116.49198 | 33949 ft | 463 kts | 244° |
| 2026-04-29 12:38 | 20.67579 | 116.43037 | 33957 ft | 463 kts | 244° |
| 2026-04-29 12:38 | 20.64725 | 116.36883 | 33955 ft | 463 kts | 243° |
| 2026-04-29 12:39 | 20.61887 | 116.30770 | 33951 ft | 462 kts | 243° |
| 2026-04-29 12:39 | 20.59034 | 116.24632 | 33956 ft | 461 kts | 243° |
| 2026-04-29 12:40 | 20.56178 | 116.18493 | 33948 ft | 462 kts | 243° |
| 2026-04-29 12:40 | 20.53313 | 116.12345 | 33953 ft | 463 kts | 243° |
| 2026-04-29 12:41 | 20.50467 | 116.06242 | 33952 ft | 463 kts | 243° |
| 2026-04-29 12:41 | 20.47602 | 116.00105 | 33954 ft | 462 kts | 243° |
| 2026-04-29 12:42 | 20.44732 | 115.93966 | 33956 ft | 463 kts | 243° |
| 2026-04-29 12:42 | 20.41855 | 115.87817 | 33954 ft | 464 kts | 243° |
| 2026-04-29 12:43 | 20.38974 | 115.81667 | 33943 ft | 463 kts | 243° |
| 2026-04-29 12:43 | 20.36113 | 115.75567 | 33944 ft | 462 kts | 243° |
| 2026-04-29 12:44 | 20.33236 | 115.69441 | 33950 ft | 462 kts | 243° |
| 2026-04-29 12:44 | 20.30356 | 115.63314 | 33951 ft | 462 kts | 243° |
| 2026-04-29 12:45 | 20.27474 | 115.57190 | 33948 ft | 463 kts | 243° |
| 2026-04-29 12:45 | 20.24604 | 115.51097 | 33951 ft | 463 kts | 243° |
| 2026-04-29 12:46 | 20.21717 | 115.44975 | 33948 ft | 463 kts | 243° |
| 2026-04-29 12:46 | 20.18824 | 115.38849 | 33948 ft | 463 kts | 243° |
| 2026-04-29 12:47 | 20.15930 | 115.32727 | 33953 ft | 463 kts | 243° |
| 2026-04-29 12:47 | 20.13026 | 115.26590 | 33949 ft | 465 kts | 243° |
| 2026-04-29 12:48 | 20.10135 | 115.20486 | 33946 ft | 465 kts | 243° |
| 2026-04-29 12:48 | 20.07222 | 115.14343 | 33944 ft | 465 kts | 243° |
| 2026-04-29 12:49 | 20.04309 | 115.08207 | 33949 ft | 465 kts | 243° |
| 2026-04-29 12:49 | 20.01389 | 115.02064 | 33935 ft | 465 kts | 243° |
| 2026-04-29 12:50 | 19.98483 | 114.95957 | 33934 ft | 466 kts | 243° |
| 2026-04-29 12:50 | 19.95551 | 114.89801 | 33953 ft | 467 kts | 243° |
| 2026-04-29 12:51 | 19.92623 | 114.83657 | 33942 ft | 465 kts | 243° |
| 2026-04-29 12:51 | 19.89706 | 114.77548 | 33943 ft | 463 kts | 243° |
| 2026-04-29 12:52 | 19.86789 | 114.71443 | 33946 ft | 463 kts | 243° |
| 2026-04-29 12:52 | 19.83892 | 114.65388 | 33949 ft | 463 kts | 243° |
| 2026-04-29 12:53 | 19.80971 | 114.59289 | 33949 ft | 463 kts | 243° |
| 2026-04-29 12:53 | 19.78051 | 114.53197 | 33945 ft | 463 kts | 243° |
| 2026-04-29 12:54 | 19.75125 | 114.47100 | 33944 ft | 463 kts | 243° |
| 2026-04-29 12:54 | 19.72220 | 114.41054 | 33944 ft | 463 kts | 243° |
| 2026-04-29 12:55 | 19.69291 | 114.34964 | 33944 ft | 463 kts | 243° |
| 2026-04-29 12:55 | 19.66360 | 114.28878 | 33945 ft | 463 kts | 243° |
| 2026-04-29 12:56 | 19.63431 | 114.22799 | 33936 ft | 463 kts | 243° |
| 2026-04-29 12:56 | 19.60515 | 114.16756 | 33945 ft | 463 kts | 243° |
| 2026-04-29 12:57 | 19.57583 | 114.10686 | 33948 ft | 463 kts | 243° |
| 2026-04-29 12:57 | 19.54644 | 114.04607 | 33947 ft | 463 kts | 243° |
| 2026-04-29 12:58 | 19.51698 | 113.98520 | 33938 ft | 464 kts | 243° |
| 2026-04-29 12:58 | 19.48746 | 113.92428 | 33943 ft | 465 kts | 243° |
| 2026-04-29 12:59 | 19.45815 | 113.86386 | 33942 ft | 464 kts | 243° |
| 2026-04-29 12:59 | 19.42869 | 113.80319 | 33945 ft | 463 kts | 243° |
| 2026-04-29 13:00 | 19.39922 | 113.74254 | 33947 ft | 463 kts | 243° |
| 2026-04-29 13:00 | 19.36977 | 113.68201 | 33948 ft | 463 kts | 242° |
| 2026-04-29 13:01 | 19.34046 | 113.62184 | 33948 ft | 463 kts | 242° |
| 2026-04-29 13:01 | 19.31095 | 113.56132 | 33946 ft | 463 kts | 242° |
| 2026-04-29 13:02 | 19.28142 | 113.50081 | 33943 ft | 463 kts | 242° |
| 2026-04-29 13:02 | 19.25184 | 113.44027 | 33944 ft | 463 kts | 242° |
| 2026-04-29 13:03 | 19.22219 | 113.37965 | 33937 ft | 464 kts | 242° |
| 2026-04-29 13:03 | 19.19279 | 113.31958 | 33946 ft | 462 kts | 242° |
| 2026-04-29 13:04 | 19.16324 | 113.25929 | 33950 ft | 461 kts | 242° |
| 2026-04-29 13:04 | 19.13369 | 113.19908 | 33944 ft | 461 kts | 242° |
| 2026-04-29 13:05 | 19.10411 | 113.13883 | 33951 ft | 462 kts | 242° |
| 2026-04-29 13:05 | 19.07469 | 113.07899 | 33943 ft | 463 kts | 242° |
| 2026-04-29 13:06 | 19.04486 | 113.01838 | 33942 ft | 466 kts | 242° |
| 2026-04-29 13:06 | 19.01493 | 112.95763 | 33942 ft | 466 kts | 242° |
| 2026-04-29 13:07 | 18.98497 | 112.89685 | 33946 ft | 466 kts | 242° |
| 2026-04-29 13:07 | 18.95507 | 112.83627 | 33948 ft | 463 kts | 242° |
| 2026-04-29 13:08 | 18.92559 | 112.77660 | 33955 ft | 461 kts | 242° |
| 2026-04-29 13:08 | 18.89577 | 112.71632 | 33950 ft | 463 kts | 242° |
| 2026-04-29 13:09 | 18.86589 | 112.65598 | 33948 ft | 464 kts | 242° |
| 2026-04-29 13:09 | 18.83595 | 112.59556 | 33945 ft | 464 kts | 242° |
| 2026-04-29 13:10 | 18.80601 | 112.53520 | 33939 ft | 464 kts | 242° |
| 2026-04-29 13:10 | 18.77627 | 112.47532 | 33944 ft | 464 kts | 242° |
| 2026-04-29 13:11 | 18.74627 | 112.41496 | 33947 ft | 467 kts | 242° |
| 2026-04-29 13:11 | 18.71599 | 112.35412 | 33943 ft | 468 kts | 242° |
| 2026-04-29 13:12 | 18.68589 | 112.29367 | 33946 ft | 464 kts | 242° |
| 2026-04-29 13:12 | 18.65467 | 112.23478 | 33949 ft | 463 kts | 237° |
| 2026-04-29 13:13 | 18.61948 | 112.17785 | 33939 ft | 463 kts | 236° |
| 2026-04-29 13:13 | 18.58374 | 112.12140 | 33950 ft | 464 kts | 236° |
| 2026-04-29 13:14 | 18.54763 | 112.06454 | 33951 ft | 469 kts | 236° |
| 2026-04-29 13:14 | 18.51133 | 112.00727 | 33948 ft | 470 kts | 236° |
| 2026-04-29 13:15 | 18.47533 | 111.95046 | 33945 ft | 470 kts | 236° |
| 2026-04-29 13:15 | 18.43912 | 111.89335 | 33947 ft | 466 kts | 236° |
| 2026-04-29 13:16 | 18.40325 | 111.83682 | 33953 ft | 463 kts | 236° |
| 2026-04-29 13:16 | 18.36743 | 111.78045 | 33949 ft | 464 kts | 236° |
| 2026-04-29 13:17 | 18.33160 | 111.72411 | 33951 ft | 468 kts | 236° |
| 2026-04-29 13:17 | 18.29538 | 111.66719 | 33950 ft | 469 kts | 236° |
| 2026-04-29 13:18 | 18.25906 | 111.61017 | 33954 ft | 469 kts | 236° |
| 2026-04-29 13:18 | 18.22278 | 111.55326 | 33951 ft | 469 kts | 236° |
| 2026-04-29 13:19 | 18.18645 | 111.49631 | 33946 ft | 468 kts | 236° |
| 2026-04-29 13:19 | 18.15057 | 111.44013 | 33952 ft | 464 kts | 236° |
| 2026-04-29 13:20 | 18.11458 | 111.38382 | 33946 ft | 464 kts | 236° |
| 2026-04-29 13:20 | 18.07860 | 111.32759 | 33951 ft | 464 kts | 236° |
| 2026-04-29 13:21 | 18.04278 | 111.27165 | 33949 ft | 464 kts | 236° |
| 2026-04-29 13:21 | 18.00676 | 111.21545 | 33944 ft | 464 kts | 236° |
| 2026-04-29 13:22 | 17.97066 | 111.15915 | 33949 ft | 464 kts | 236° |
| 2026-04-29 13:22 | 17.93451 | 111.10283 | 33950 ft | 467 kts | 236° |
| 2026-04-29 13:23 | 17.89808 | 111.04613 | 33947 ft | 469 kts | 236° |
| 2026-04-29 13:23 | 17.86183 | 110.98977 | 33950 ft | 468 kts | 236° |
| 2026-04-29 13:24 | 17.82539 | 110.93315 | 33952 ft | 468 kts | 236° |
| 2026-04-29 13:24 | 17.78894 | 110.87657 | 33948 ft | 468 kts | 236° |
| 2026-04-29 13:25 | 17.75246 | 110.81997 | 33947 ft | 468 kts | 236° |
| 2026-04-29 13:25 | 17.69745 | 110.73475 | 33947 ft | 473 kts | 236° |
| 2026-04-29 13:26 | 17.66073 | 110.67792 | 33953 ft | 474 kts | 236° |
| 2026-04-29 13:26 | 17.62376 | 110.62074 | 33949 ft | 474 kts | 236° |
| 2026-04-29 13:27 | 17.58672 | 110.56351 | 33946 ft | 474 kts | 236° |
| 2026-04-29 13:27 | 17.54969 | 110.50635 | 33951 ft | 474 kts | 236° |
| 2026-04-29 13:28 | 17.51262 | 110.44918 | 33950 ft | 474 kts | 237° |
| 2026-04-29 13:28 | 17.47576 | 110.39237 | 33949 ft | 475 kts | 237° |
| 2026-04-29 13:29 | 17.43883 | 110.33495 | 33946 ft | 475 kts | 239° |
| 2026-04-29 13:29 | 17.41219 | 110.27195 | 33950 ft | 474 kts | 255° |
| 2026-04-29 13:30 | 17.39841 | 110.20445 | 33956 ft | 475 kts | 259° |
| 2026-04-29 13:30 | 17.38692 | 110.13688 | 33951 ft | 475 kts | 259° |
| 2026-04-29 13:31 | 17.37542 | 110.06858 | 33952 ft | 478 kts | 259° |
| 2026-04-29 13:31 | 17.36359 | 110.00006 | 33952 ft | 479 kts | 259° |
| 2026-04-29 13:32 | 17.35159 | 109.93154 | 33954 ft | 479 kts | 259° |
| 2026-04-29 13:32 | 17.33963 | 109.86351 | 33950 ft | 479 kts | 259° |
| 2026-04-29 13:33 | 17.32757 | 109.79495 | 33955 ft | 479 kts | 259° |
| 2026-04-29 13:33 | 17.31549 | 109.72643 | 33955 ft | 479 kts | 259° |
| 2026-04-29 13:34 | 17.30337 | 109.65786 | 33955 ft | 479 kts | 259° |
| 2026-04-29 13:34 | 17.29131 | 109.58969 | 33954 ft | 479 kts | 259° |
| 2026-04-29 13:35 | 17.27916 | 109.52119 | 33957 ft | 479 kts | 259° |
| 2026-04-29 13:35 | 17.26698 | 109.45264 | 33956 ft | 479 kts | 259° |
| 2026-04-29 13:36 | 17.25478 | 109.38411 | 33956 ft | 479 kts | 259° |
| 2026-04-29 13:36 | 17.24255 | 109.31558 | 33958 ft | 479 kts | 259° |
| 2026-04-29 13:37 | 17.23038 | 109.24755 | 33961 ft | 479 kts | 259° |
| 2026-04-29 13:37 | 17.21811 | 109.17907 | 33961 ft | 479 kts | 259° |
| 2026-04-29 13:38 | 17.20582 | 109.11058 | 33962 ft | 479 kts | 259° |
| 2026-04-29 13:38 | 17.19348 | 109.04199 | 33960 ft | 480 kts | 259° |
| 2026-04-29 13:39 | 17.18120 | 108.97387 | 33962 ft | 480 kts | 259° |
| 2026-04-29 13:39 | 17.16880 | 108.90523 | 33957 ft | 481 kts | 259° |
| 2026-04-29 13:40 | 17.15632 | 108.83624 | 33966 ft | 484 kts | 259° |
| 2026-04-29 13:40 | 17.14376 | 108.76699 | 33967 ft | 485 kts | 259° |
| 2026-04-29 13:41 | 17.13112 | 108.69747 | 33968 ft | 487 kts | 259° |
| 2026-04-29 13:41 | 17.11854 | 108.62831 | 33968 ft | 488 kts | 259° |
| 2026-04-29 13:42 | 17.10583 | 108.55867 | 33972 ft | 488 kts | 259° |
| 2026-04-29 13:42 | 17.09309 | 108.48897 | 33971 ft | 488 kts | 259° |
| 2026-04-29 13:43 | 17.08034 | 108.41935 | 33979 ft | 488 kts | 259° |
| 2026-04-29 13:43 | 17.06765 | 108.35023 | 33979 ft | 487 kts | 259° |
| 2026-04-29 13:44 | 17.05486 | 108.28067 | 33979 ft | 487 kts | 259° |
| 2026-04-29 13:44 | 17.04204 | 108.21108 | 33980 ft | 488 kts | 259° |
| 2026-04-29 13:45 | 17.02921 | 108.14157 | 33983 ft | 488 kts | 259° |
| 2026-04-29 13:45 | 17.01643 | 108.07251 | 33982 ft | 488 kts | 259° |
| 2026-04-29 13:46 | 17.00353 | 108.00291 | 33984 ft | 487 kts | 259° |
| 2026-04-29 13:46 | 16.99063 | 107.93344 | 33985 ft | 487 kts | 259° |
| 2026-04-29 13:47 | 16.97770 | 107.86393 | 33985 ft | 488 kts | 259° |
| 2026-04-29 13:47 | 16.96473 | 107.79440 | 33985 ft | 488 kts | 259° |
| 2026-04-29 13:48 | 16.95184 | 107.72534 | 33986 ft | 487 kts | 259° |
| 2026-04-29 13:48 | 16.93886 | 107.65603 | 33983 ft | 486 kts | 259° |
| 2026-04-29 13:49 | 16.92588 | 107.58683 | 33980 ft | 486 kts | 259° |
| 2026-04-29 13:49 | 16.91297 | 107.51807 | 33979 ft | 486 kts | 259° |
| 2026-04-29 13:50 | 16.89994 | 107.44887 | 33982 ft | 486 kts | 259° |
| 2026-04-29 13:50 | 16.88667 | 107.37970 | 33984 ft | 485 kts | 259° |
| 2026-04-29 13:51 | 16.87269 | 107.31092 | 33984 ft | 484 kts | 258° |
| 2026-04-29 13:51 | 16.85875 | 107.24274 | 33983 ft | 483 kts | 258° |
| 2026-04-29 13:52 | 16.84481 | 107.17416 | 33988 ft | 483 kts | 258° |
| 2026-04-29 13:52 | 16.83091 | 107.10549 | 33988 ft | 483 kts | 258° |
| 2026-04-29 13:53 | 16.81699 | 107.03684 | 33999 ft | 483 kts | 258° |
| 2026-04-29 13:53 | 16.80310 | 106.96851 | 33997 ft | 480 kts | 258° |
| 2026-04-29 13:54 | 16.78934 | 106.90090 | 34001 ft | 479 kts | 258° |
| 2026-04-29 13:54 | 16.77546 | 106.83288 | 34001 ft | 479 kts | 258° |
| 2026-04-29 13:55 | 16.76156 | 106.76486 | 33997 ft | 479 kts | 258° |
| 2026-04-29 13:55 | 16.74765 | 106.69689 | 33999 ft | 479 kts | 258° |
| 2026-04-29 13:56 | 16.73383 | 106.62946 | 34001 ft | 478 kts | 258° |
| 2026-04-29 13:56 | 16.71992 | 106.56174 | 33998 ft | 478 kts | 258° |
| 2026-04-29 13:57 | 16.70596 | 106.49388 | 33999 ft | 479 kts | 258° |
| 2026-04-29 13:57 | 16.69431 | 106.43733 | 33991 ft | 480 kts | 258° |
| 2026-04-29 13:58 | 16.67789 | 106.35782 | 33992 ft | 480 kts | 258° |
| 2026-04-29 13:58 | 16.66393 | 106.29033 | 33971 ft | 479 kts | 258° |
| 2026-04-29 13:59 | 16.64986 | 106.22240 | 33973 ft | 479 kts | 258° |
| 2026-04-29 13:59 | 16.63580 | 106.15459 | 33963 ft | 479 kts | 258° |
| 2026-04-29 14:00 | 16.62178 | 106.08718 | 33965 ft | 479 kts | 258° |
| 2026-04-29 14:00 | 16.60767 | 106.01940 | 33961 ft | 479 kts | 258° |
| 2026-04-29 14:01 | 16.59351 | 105.95153 | 33958 ft | 479 kts | 258° |
| 2026-04-29 14:01 | 16.57932 | 105.88363 | 33951 ft | 480 kts | 258° |
| 2026-04-29 14:02 | 16.56510 | 105.81568 | 33943 ft | 480 kts | 258° |
| 2026-04-29 14:02 | 16.55095 | 105.74817 | 33941 ft | 480 kts | 258° |
| 2026-04-29 14:03 | 16.53668 | 105.68022 | 33941 ft | 480 kts | 258° |
| 2026-04-29 14:03 | 16.52239 | 105.61230 | 33941 ft | 480 kts | 258° |
| 2026-04-29 14:04 | 16.50805 | 105.54422 | 33940 ft | 481 kts | 258° |
| 2026-04-29 14:04 | 16.49377 | 105.47656 | 33939 ft | 481 kts | 258° |
| 2026-04-29 14:05 | 16.47937 | 105.40847 | 33939 ft | 481 kts | 258° |
| 2026-04-29 14:05 | 16.46495 | 105.34041 | 33931 ft | 483 kts | 258° |
| 2026-04-29 14:06 | 16.45042 | 105.27190 | 33936 ft | 485 kts | 258° |
| 2026-04-29 14:06 | 16.43595 | 105.20380 | 33935 ft | 485 kts | 258° |
| 2026-04-29 14:07 | 16.42137 | 105.13530 | 33934 ft | 485 kts | 258° |
| 2026-04-29 14:07 | 16.40676 | 105.06675 | 33937 ft | 485 kts | 258° |
| 2026-04-29 14:08 | 16.39214 | 104.99828 | 33934 ft | 485 kts | 258° |
| 2026-04-29 14:08 | 16.37747 | 104.92974 | 33937 ft | 485 kts | 258° |
| 2026-04-29 14:09 | 16.36289 | 104.86166 | 33926 ft | 485 kts | 258° |
| 2026-04-29 14:09 | 16.34817 | 104.79307 | 33929 ft | 485 kts | 258° |
| 2026-04-29 14:10 | 16.33343 | 104.72453 | 33930 ft | 485 kts | 258° |
| 2026-04-29 14:10 | 16.31867 | 104.65597 | 33930 ft | 485 kts | 258° |
| 2026-04-29 14:11 | 16.30400 | 104.58797 | 33929 ft | 485 kts | 258° |
| 2026-04-29 14:11 | 16.28919 | 104.51940 | 33927 ft | 485 kts | 258° |
| 2026-04-29 14:12 | 16.27545 | 104.45070 | 33922 ft | 485 kts | 263° |
| 2026-04-29 14:12 | 16.27612 | 104.38095 | 33923 ft | 484 kts | 277° |
| 2026-04-29 14:13 | 16.28593 | 104.31210 | 33912 ft | 484 kts | 279° |
| 2026-04-29 14:13 | 16.29707 | 104.24308 | 33914 ft | 484 kts | 279° |
| 2026-04-29 14:14 | 16.30815 | 104.17390 | 33903 ft | 483 kts | 279° |
| 2026-04-29 14:14 | 16.31890 | 104.10507 | 33905 ft | 481 kts | 279° |
| 2026-04-29 14:15 | 16.32946 | 104.03673 | 33902 ft | 481 kts | 279° |
| 2026-04-29 14:15 | 16.34005 | 103.96796 | 33898 ft | 481 kts | 279° |
| 2026-04-29 14:16 | 16.35064 | 103.89916 | 33894 ft | 481 kts | 279° |
| 2026-04-29 14:16 | 16.36120 | 103.83038 | 33890 ft | 481 kts | 279° |
| 2026-04-29 14:17 | 16.37173 | 103.76166 | 33892 ft | 480 kts | 279° |
| 2026-04-29 14:17 | 16.38216 | 103.69349 | 33897 ft | 480 kts | 279° |
| 2026-04-29 14:18 | 16.39263 | 103.62489 | 33888 ft | 480 kts | 279° |
| 2026-04-29 14:18 | 16.40308 | 103.55622 | 33894 ft | 480 kts | 279° |
| 2026-04-29 14:19 | 16.41351 | 103.48756 | 33892 ft | 480 kts | 279° |
| 2026-04-29 14:19 | 16.42383 | 103.41942 | 33894 ft | 480 kts | 279° |
| 2026-04-29 14:20 | 16.43423 | 103.35069 | 33894 ft | 480 kts | 279° |
| 2026-04-29 14:20 | 16.44460 | 103.28198 | 33895 ft | 480 kts | 279° |
| 2026-04-29 14:21 | 16.45495 | 103.21322 | 33889 ft | 480 kts | 279° |
| 2026-04-29 14:21 | 16.46519 | 103.14499 | 33898 ft | 480 kts | 279° |
| 2026-04-29 14:22 | 16.47550 | 103.07621 | 33894 ft | 482 kts | 279° |
| 2026-04-29 14:22 | 16.48583 | 103.00712 | 33886 ft | 483 kts | 279° |
| 2026-04-29 14:23 | 16.49615 | 102.93793 | 33885 ft | 483 kts | 279° |
| 2026-04-29 14:23 | 16.50644 | 102.86882 | 33886 ft | 483 kts | 279° |
| 2026-04-29 14:24 | 16.51664 | 102.80012 | 33883 ft | 483 kts | 279° |
| 2026-04-29 14:24 | 16.52687 | 102.73103 | 33880 ft | 482 kts | 279° |
| 2026-04-29 14:25 | 16.53706 | 102.66209 | 33884 ft | 480 kts | 279° |
| 2026-04-29 14:25 | 16.54720 | 102.59329 | 33882 ft | 480 kts | 279° |
| 2026-04-29 14:26 | 16.55726 | 102.52497 | 33888 ft | 480 kts | 279° |
| 2026-04-29 14:26 | 16.56736 | 102.45611 | 33888 ft | 480 kts | 279° |
| 2026-04-29 14:27 | 16.57744 | 102.38727 | 33900 ft | 480 kts | 279° |
| 2026-04-29 14:28 | 16.59248 | 102.28422 | 33892 ft | 479 kts | 279° |
| 2026-04-29 14:28 | 16.60242 | 102.21599 | 33895 ft | 479 kts | 279° |
| 2026-04-29 14:29 | 16.61240 | 102.14725 | 33899 ft | 479 kts | 279° |
| 2026-04-29 14:29 | 16.62236 | 102.07851 | 33903 ft | 479 kts | 279° |
| 2026-04-29 14:30 | 16.63230 | 102.00986 | 33903 ft | 478 kts | 278° |
| 2026-04-29 14:30 | 16.64101 | 101.94177 | 33910 ft | 476 kts | 275° |
| 2026-04-29 14:31 | 16.64613 | 101.87300 | 33921 ft | 476 kts | 274° |
| 2026-04-29 14:31 | 16.65095 | 101.80415 | 33911 ft | 476 kts | 275° |
| 2026-04-29 14:32 | 16.65631 | 101.73536 | 33915 ft | 476 kts | 275° |
| 2026-04-29 14:32 | 16.66193 | 101.66702 | 33908 ft | 476 kts | 275° |
| 2026-04-29 14:33 | 16.66761 | 101.59836 | 33914 ft | 474 kts | 275° |
| 2026-04-29 14:33 | 16.67322 | 101.52984 | 33899 ft | 474 kts | 275° |
| 2026-04-29 14:34 | 16.67879 | 101.46130 | 33907 ft | 474 kts | 275° |
| 2026-04-29 14:34 | 16.68433 | 101.39280 | 33889 ft | 474 kts | 275° |
| 2026-04-29 14:35 | 16.68982 | 101.32477 | 33890 ft | 474 kts | 275° |
| 2026-04-29 14:35 | 16.69532 | 101.25628 | 33890 ft | 474 kts | 274° |
| 2026-04-29 14:36 | 16.70080 | 101.18776 | 33889 ft | 474 kts | 274° |
| 2026-04-29 14:36 | 16.70625 | 101.11924 | 33891 ft | 474 kts | 274° |
| 2026-04-29 14:37 | 16.71166 | 101.05122 | 33888 ft | 474 kts | 274° |
| 2026-04-29 14:37 | 16.71707 | 100.98267 | 33880 ft | 474 kts | 274° |
| 2026-04-29 14:38 | 16.72245 | 100.91418 | 33881 ft | 474 kts | 274° |
| 2026-04-29 14:38 | 16.72782 | 100.84561 | 33870 ft | 474 kts | 274° |
| 2026-04-29 14:39 | 16.73313 | 100.77753 | 33874 ft | 474 kts | 274° |
| 2026-04-29 14:39 | 16.73845 | 100.70897 | 33854 ft | 474 kts | 274° |
| 2026-04-29 14:40 | 16.74375 | 100.64043 | 33866 ft | 474 kts | 274° |
| 2026-04-29 14:40 | 16.74903 | 100.57184 | 33845 ft | 474 kts | 274° |
| 2026-04-29 14:41 | 16.75430 | 100.50327 | 33835 ft | 473 kts | 274° |
| 2026-04-29 14:41 | 16.75949 | 100.43531 | 33836 ft | 473 kts | 274° |
| 2026-04-29 14:42 | 16.76468 | 100.36689 | 33826 ft | 473 kts | 274° |
| 2026-04-29 14:42 | 16.76985 | 100.29842 | 33799 ft | 473 kts | 274° |
| 2026-04-29 14:43 | 16.77384 | 100.22992 | 33799 ft | 473 kts | 271° |
| 2026-04-29 14:43 | 16.77580 | 100.16178 | 33805 ft | 472 kts | 270° |
| 2026-04-29 14:44 | 16.77780 | 100.09336 | 33804 ft | 472 kts | 271° |
| 2026-04-29 14:44 | 16.78014 | 100.02490 | 33813 ft | 472 kts | 271° |
| 2026-04-29 14:45 | 16.78261 | 99.95641 | 33820 ft | 472 kts | 271° |
| 2026-04-29 14:45 | 16.78506 | 99.88844 | 33823 ft | 472 kts | 271° |
| 2026-04-29 14:46 | 16.78749 | 99.81994 | 33835 ft | 472 kts | 270° |
| 2026-04-29 14:46 | 16.78989 | 99.75147 | 33827 ft | 473 kts | 270° |
| 2026-04-29 14:47 | 16.79226 | 99.68288 | 33835 ft | 473 kts | 270° |
| 2026-04-29 14:47 | 16.79461 | 99.61433 | 33833 ft | 473 kts | 270° |
| 2026-04-29 14:48 | 16.79692 | 99.54620 | 33839 ft | 473 kts | 270° |
| 2026-04-29 14:48 | 16.79923 | 99.47764 | 33835 ft | 473 kts | 270° |
| 2026-04-29 14:49 | 16.80152 | 99.40918 | 33835 ft | 471 kts | 270° |
| 2026-04-29 14:49 | 16.80375 | 99.34152 | 33850 ft | 469 kts | 270° |
| 2026-04-29 14:50 | 16.80596 | 99.27356 | 33849 ft | 469 kts | 270° |
| 2026-04-29 14:50 | 16.80816 | 99.20560 | 33867 ft | 469 kts | 270° |
| 2026-04-29 14:51 | 16.81034 | 99.13745 | 33869 ft | 469 kts | 270° |
| 2026-04-29 14:51 | 16.81249 | 99.06941 | 33893 ft | 469 kts | 270° |
| 2026-04-29 14:52 | 16.81427 | 99.01291 | 33891 ft | 468 kts | 270° |
| 2026-04-29 14:52 | 16.81672 | 98.93403 | 33905 ft | 468 kts | 270° |
| 2026-04-29 14:53 | 16.81880 | 98.86607 | 33906 ft | 468 kts | 270° |
| 2026-04-29 14:53 | 16.82051 | 98.80963 | 33903 ft | 468 kts | 270° |
| 2026-04-29 14:54 | 16.82289 | 98.73068 | 33910 ft | 468 kts | 270° |
| 2026-04-29 14:54 | 16.82490 | 98.66283 | 33911 ft | 467 kts | 270° |
| 2026-04-29 14:55 | 16.82689 | 98.59505 | 33922 ft | 467 kts | 270° |
| 2026-04-29 14:55 | 16.82853 | 98.53872 | 33920 ft | 467 kts | 270° |
| 2026-04-29 14:56 | 16.84003 | 98.46071 | 33909 ft | 471 kts | 282° |
| 2026-04-29 14:56 | 16.85472 | 98.40559 | 33912 ft | 471 kts | 283° |
| 2026-04-29 14:57 | 16.87314 | 98.34039 | 33912 ft | 472 kts | 284° |
| 2026-04-29 14:57 | 16.89166 | 98.27491 | 33912 ft | 468 kts | 283° |
| 2026-04-29 14:58 | 16.90987 | 98.20982 | 33911 ft | 466 kts | 283° |
| 2026-04-29 14:58 | 16.92792 | 98.14489 | 33902 ft | 465 kts | 283° |
| 2026-04-29 14:59 | 16.94592 | 98.07998 | 33900 ft | 465 kts | 283° |
| 2026-04-29 14:59 | 16.96380 | 98.01546 | 33894 ft | 466 kts | 283° |
| 2026-04-29 15:00 | 16.98180 | 97.95043 | 33909 ft | 465 kts | 284° |
| 2026-04-29 15:00 | 16.99974 | 97.88559 | 33895 ft | 464 kts | 284° |
| 2026-04-29 15:01 | 17.01649 | 97.82066 | 33894 ft | 463 kts | 282° |
| 2026-04-29 15:01 | 17.03130 | 97.75565 | 33889 ft | 463 kts | 281° |
| 2026-04-29 15:02 | 17.04625 | 97.69022 | 33895 ft | 463 kts | 281° |
| 2026-04-29 15:02 | 17.06152 | 97.62484 | 33891 ft | 463 kts | 282° |
| 2026-04-29 15:03 | 17.07693 | 97.55941 | 33881 ft | 464 kts | 282° |
| 2026-04-29 15:03 | 17.09226 | 97.49430 | 33888 ft | 465 kts | 282° |
| 2026-04-29 15:04 | 17.10767 | 97.42866 | 33891 ft | 465 kts | 282° |
| 2026-04-29 15:04 | 17.12307 | 97.36300 | 33893 ft | 465 kts | 282° |
| 2026-04-29 15:05 | 17.13843 | 97.29734 | 33895 ft | 465 kts | 282° |
| 2026-04-29 15:05 | 17.15378 | 97.23163 | 33882 ft | 465 kts | 282° |
| 2026-04-29 15:06 | 17.16910 | 97.16594 | 33881 ft | 465 kts | 282° |
| 2026-04-29 15:06 | 17.18430 | 97.10067 | 33890 ft | 465 kts | 282° |
| 2026-04-29 15:07 | 17.19958 | 97.03495 | 33896 ft | 465 kts | 282° |
| 2026-04-29 15:07 | 17.21484 | 96.96922 | 33895 ft | 465 kts | 282° |
| 2026-04-29 15:08 | 17.23007 | 96.90351 | 33897 ft | 465 kts | 282° |
| 2026-04-29 15:08 | 17.24518 | 96.83823 | 33896 ft | 465 kts | 282° |
| 2026-04-29 15:09 | 17.26040 | 96.77234 | 33881 ft | 467 kts | 282° |
| 2026-04-29 15:09 | 17.27563 | 96.70631 | 33878 ft | 467 kts | 282° |
| 2026-04-29 15:10 | 17.29084 | 96.64032 | 33884 ft | 467 kts | 282° |
| 2026-04-29 15:10 | 17.30577 | 96.57436 | 33881 ft | 470 kts | 279° |
| 2026-04-29 15:11 | 17.30985 | 96.50645 | 33884 ft | 468 kts | 264° |
| 2026-04-29 15:11 | 17.29628 | 96.43997 | 33887 ft | 469 kts | 255° |
| 2026-04-29 15:12 | 17.27753 | 96.37439 | 33886 ft | 469 kts | 253° |
| 2026-04-29 15:12 | 17.25831 | 96.30929 | 33895 ft | 469 kts | 253° |
| 2026-04-29 15:13 | 17.23944 | 96.24453 | 33880 ft | 468 kts | 254° |
| 2026-04-29 15:13 | 17.22062 | 96.17930 | 33897 ft | 468 kts | 254° |
| 2026-04-29 15:14 | 17.20183 | 96.11405 | 33901 ft | 468 kts | 254° |
| 2026-04-29 15:14 | 17.18311 | 96.04918 | 33905 ft | 470 kts | 254° |
| 2026-04-29 15:15 | 17.16416 | 95.98362 | 33911 ft | 472 kts | 254° |
| 2026-04-29 15:15 | 17.14515 | 95.91792 | 33899 ft | 472 kts | 254° |
| 2026-04-29 15:16 | 17.12609 | 95.85219 | 33898 ft | 472 kts | 254° |
| 2026-04-29 15:16 | 17.10703 | 95.78653 | 33899 ft | 472 kts | 254° |
| 2026-04-29 15:17 | 17.08795 | 95.72089 | 33901 ft | 472 kts | 254° |
| 2026-04-29 15:17 | 17.06898 | 95.65569 | 33894 ft | 472 kts | 254° |
| 2026-04-29 15:18 | 17.04983 | 95.58999 | 33893 ft | 473 kts | 254° |
| 2026-04-29 15:18 | 17.03067 | 95.52429 | 33893 ft | 473 kts | 254° |
| 2026-04-29 15:19 | 17.01148 | 95.45861 | 33897 ft | 473 kts | 254° |
| 2026-04-29 15:19 | 16.99240 | 95.39341 | 33914 ft | 473 kts | 254° |
| 2026-04-29 15:20 | 16.97318 | 95.32779 | 33906 ft | 472 kts | 254° |
| 2026-04-29 15:20 | 16.95401 | 95.26244 | 33906 ft | 469 kts | 254° |
| 2026-04-29 15:21 | 16.93488 | 95.19731 | 33901 ft | 469 kts | 254° |
| 2026-04-29 15:21 | 16.91587 | 95.13265 | 33911 ft | 469 kts | 254° |
| 2026-04-29 15:22 | 16.89672 | 95.06762 | 33907 ft | 469 kts | 254° |
| 2026-04-29 15:22 | 16.87756 | 95.00262 | 33907 ft | 469 kts | 254° |
| 2026-04-29 15:23 | 16.85848 | 94.93799 | 33910 ft | 469 kts | 254° |
| 2026-04-29 15:23 | 16.83931 | 94.87312 | 33907 ft | 467 kts | 254° |
| 2026-04-29 15:24 | 16.82401 | 94.80740 | 33894 ft | 466 kts | 264° |
| 2026-04-29 15:24 | 16.82604 | 94.74014 | 33905 ft | 465 kts | 280° |
| 2026-04-29 15:25 | 16.84649 | 94.67602 | 33908 ft | 468 kts | 291° |
| 2026-04-29 15:25 | 16.87212 | 94.61409 | 33909 ft | 468 kts | 292° |
| 2026-04-29 15:26 | 16.89840 | 94.55184 | 33903 ft | 468 kts | 292° |
| 2026-04-29 15:26 | 16.92433 | 94.48958 | 33905 ft | 467 kts | 291° |
| 2026-04-29 15:27 | 16.95003 | 94.42723 | 33915 ft | 467 kts | 291° |
| 2026-04-29 15:27 | 16.97545 | 94.36535 | 33910 ft | 467 kts | 291° |
| 2026-04-29 15:28 | 17.00102 | 94.30308 | 33912 ft | 467 kts | 291° |
| 2026-04-29 15:28 | 17.02666 | 94.24060 | 33909 ft | 469 kts | 291° |
| 2026-04-29 15:29 | 17.05239 | 94.17784 | 33907 ft | 470 kts | 291° |
| 2026-04-29 15:30 | 17.10345 | 94.05311 | 33911 ft | 468 kts | 291° |
| 2026-04-29 15:30 | 17.12901 | 93.99059 | 33911 ft | 468 kts | 291° |
| 2026-04-29 15:31 | 17.15453 | 93.92807 | 33909 ft | 468 kts | 291° |
| 2026-04-29 15:31 | 17.18005 | 93.86552 | 33909 ft | 467 kts | 291° |
| 2026-04-29 15:32 | 17.20534 | 93.80346 | 33905 ft | 467 kts | 291° |
| 2026-04-29 15:32 | 17.23082 | 93.74085 | 33902 ft | 468 kts | 291° |
| 2026-04-29 15:33 | 17.25628 | 93.67825 | 33907 ft | 468 kts | 291° |
| 2026-04-29 15:33 | 17.28175 | 93.61557 | 33906 ft | 468 kts | 291° |
| 2026-04-29 15:34 | 17.30716 | 93.55294 | 33906 ft | 468 kts | 291° |
| 2026-04-29 15:34 | 17.33240 | 93.49068 | 33905 ft | 468 kts | 291° |
| 2026-04-29 15:35 | 17.35779 | 93.42800 | 33914 ft | 468 kts | 291° |
| 2026-04-29 15:35 | 17.38319 | 93.36519 | 33911 ft | 470 kts | 291° |
| 2026-04-29 15:36 | 17.40873 | 93.30200 | 33904 ft | 472 kts | 291° |
| 2026-04-29 15:36 | 17.43414 | 93.23905 | 33906 ft | 473 kts | 291° |
| 2026-04-29 15:37 | 17.45970 | 93.17567 | 33906 ft | 472 kts | 291° |
| 2026-04-29 15:37 | 17.48525 | 93.11225 | 33909 ft | 472 kts | 291° |
| 2026-04-29 15:38 | 17.51075 | 93.04887 | 33901 ft | 472 kts | 291° |
| 2026-04-29 15:38 | 17.53609 | 92.98583 | 33909 ft | 473 kts | 291° |
| 2026-04-29 15:39 | 17.56165 | 92.92218 | 33907 ft | 474 kts | 291° |
| 2026-04-29 15:39 | 17.58719 | 92.85851 | 33906 ft | 474 kts | 291° |
| 2026-04-29 15:40 | 17.61269 | 92.79486 | 33909 ft | 474 kts | 291° |
| 2026-04-29 15:40 | 17.63799 | 92.73165 | 33906 ft | 474 kts | 291° |
| 2026-04-29 15:41 | 17.66346 | 92.66794 | 33908 ft | 474 kts | 291° |
| 2026-04-29 15:41 | 17.68889 | 92.60427 | 33909 ft | 473 kts | 291° |
| 2026-04-29 15:42 | 17.71424 | 92.54072 | 33908 ft | 473 kts | 291° |
| 2026-04-29 15:42 | 17.73945 | 92.47748 | 33914 ft | 473 kts | 291° |
| 2026-04-29 15:43 | 17.76488 | 92.41358 | 33905 ft | 476 kts | 291° |
| 2026-04-29 15:43 | 17.79040 | 92.34942 | 33906 ft | 476 kts | 291° |
| 2026-04-29 15:44 | 17.81587 | 92.28528 | 33912 ft | 476 kts | 291° |
| 2026-04-29 15:44 | 17.84111 | 92.22173 | 33909 ft | 474 kts | 291° |
| 2026-04-29 15:45 | 17.86642 | 92.15784 | 33908 ft | 474 kts | 291° |
| 2026-04-29 15:45 | 17.89170 | 92.09395 | 33911 ft | 474 kts | 290° |
| 2026-04-29 15:46 | 17.91696 | 92.03008 | 33911 ft | 474 kts | 290° |
| 2026-04-29 15:46 | 17.94200 | 91.96658 | 33911 ft | 474 kts | 290° |
| 2026-04-29 15:47 | 17.96684 | 91.90244 | 33913 ft | 474 kts | 290° |
| 2026-04-29 15:47 | 17.99153 | 91.83836 | 33911 ft | 473 kts | 290° |
| 2026-04-29 15:48 | 18.01623 | 91.77432 | 33914 ft | 473 kts | 290° |
| 2026-04-29 15:48 | 18.04094 | 91.71032 | 33914 ft | 473 kts | 290° |
| 2026-04-29 15:49 | 18.06547 | 91.64673 | 33911 ft | 473 kts | 290° |
| 2026-04-29 15:49 | 18.09016 | 91.58267 | 33920 ft | 473 kts | 290° |
| 2026-04-29 15:50 | 18.11489 | 91.51840 | 33911 ft | 475 kts | 289° |
| 2026-04-29 15:50 | 18.13967 | 91.45393 | 33911 ft | 475 kts | 289° |
| 2026-04-29 15:51 | 18.16423 | 91.38997 | 33914 ft | 475 kts | 289° |
| 2026-04-29 15:51 | 18.18894 | 91.32553 | 33911 ft | 475 kts | 289° |
| 2026-04-29 15:52 | 18.21364 | 91.26105 | 33911 ft | 475 kts | 289° |
| 2026-04-29 15:52 | 18.23833 | 91.19652 | 33911 ft | 475 kts | 289° |
| 2026-04-29 15:53 | 18.26299 | 91.13201 | 33917 ft | 475 kts | 289° |
| 2026-04-29 15:53 | 18.28736 | 91.06818 | 33909 ft | 473 kts | 289° |
| 2026-04-29 15:54 | 18.31184 | 91.00399 | 33911 ft | 472 kts | 289° |
| 2026-04-29 15:54 | 18.33626 | 90.93985 | 33908 ft | 472 kts | 289° |
| 2026-04-29 15:55 | 18.36069 | 90.87564 | 33907 ft | 472 kts | 289° |
| 2026-04-29 15:55 | 18.38491 | 90.81189 | 33909 ft | 472 kts | 289° |
| 2026-04-29 15:56 | 18.40928 | 90.74767 | 33910 ft | 472 kts | 289° |
| 2026-04-29 15:56 | 18.43364 | 90.68342 | 33910 ft | 472 kts | 289° |
| 2026-04-29 15:57 | 18.45799 | 90.61911 | 33909 ft | 474 kts | 289° |
| 2026-04-29 15:57 | 18.48225 | 90.55498 | 33906 ft | 474 kts | 289° |
| 2026-04-29 15:58 | 18.50665 | 90.49039 | 33906 ft | 474 kts | 289° |
| 2026-04-29 15:58 | 18.53102 | 90.42579 | 33903 ft | 474 kts | 289° |
| 2026-04-29 15:59 | 18.55536 | 90.36119 | 33905 ft | 474 kts | 289° |
| 2026-04-29 15:59 | 18.57945 | 90.29717 | 33898 ft | 472 kts | 289° |
| 2026-04-29 16:00 | 18.60362 | 90.23293 | 33898 ft | 472 kts | 289° |
| 2026-04-29 16:00 | 18.62776 | 90.16865 | 33900 ft | 472 kts | 289° |
| 2026-04-29 16:01 | 18.65190 | 90.10431 | 33900 ft | 472 kts | 289° |
| 2026-04-29 16:01 | 18.67600 | 90.03997 | 33897 ft | 472 kts | 289° |
| 2026-04-29 16:02 | 18.69990 | 89.97605 | 33890 ft | 472 kts | 290° |
| 2026-04-29 16:02 | 18.72399 | 89.91158 | 33895 ft | 473 kts | 290° |
| 2026-04-29 16:03 | 18.74812 | 89.84699 | 33895 ft | 473 kts | 290° |
| 2026-04-29 16:03 | 18.77220 | 89.78241 | 33895 ft | 473 kts | 290° |
| 2026-04-29 16:04 | 18.79609 | 89.71826 | 33896 ft | 473 kts | 290° |
| 2026-04-29 16:04 | 18.82014 | 89.65362 | 33897 ft | 473 kts | 290° |
| 2026-04-29 16:05 | 18.84413 | 89.58902 | 33896 ft | 473 kts | 290° |
| 2026-04-29 16:05 | 18.86814 | 89.52432 | 33895 ft | 473 kts | 290° |
| 2026-04-29 16:06 | 18.89209 | 89.45970 | 33895 ft | 473 kts | 290° |
| 2026-04-29 16:06 | 18.91587 | 89.39544 | 33894 ft | 473 kts | 290° |
| 2026-04-29 16:07 | 18.93979 | 89.33074 | 33892 ft | 473 kts | 290° |
| 2026-04-29 16:07 | 18.96369 | 89.26601 | 33892 ft | 473 kts | 290° |
| 2026-04-29 16:08 | 18.98756 | 89.20125 | 33892 ft | 476 kts | 290° |
| 2026-04-29 16:08 | 19.01155 | 89.13610 | 33890 ft | 481 kts | 290° |
| 2026-04-29 16:09 | 19.03579 | 89.07023 | 33885 ft | 481 kts | 290° |
| 2026-04-29 16:09 | 19.06001 | 89.00433 | 33883 ft | 481 kts | 290° |
| 2026-04-29 16:10 | 19.08418 | 88.93847 | 33884 ft | 481 kts | 290° |
| 2026-04-29 16:10 | 19.10819 | 88.87295 | 33878 ft | 481 kts | 290° |
| 2026-04-29 16:11 | 19.13236 | 88.80692 | 33883 ft | 484 kts | 290° |
| 2026-04-29 16:11 | 19.15668 | 88.74039 | 33869 ft | 486 kts | 290° |
| 2026-04-29 16:12 | 19.18102 | 88.67372 | 33870 ft | 486 kts | 290° |
| 2026-04-29 16:12 | 19.20559 | 88.60770 | 33864 ft | 486 kts | 291° |
| 2026-04-29 16:13 | 19.23105 | 88.54148 | 33864 ft | 486 kts | 291° |
| 2026-04-29 16:13 | 19.25649 | 88.47519 | 33865 ft | 486 kts | 291° |
| 2026-04-29 16:14 | 19.28173 | 88.40899 | 33856 ft | 484 kts | 291° |
| 2026-04-29 16:14 | 19.30683 | 88.34290 | 33856 ft | 483 kts | 291° |
| 2026-04-29 16:15 | 19.33170 | 88.27731 | 33849 ft | 483 kts | 291° |
| 2026-04-29 16:15 | 19.35673 | 88.21124 | 33851 ft | 483 kts | 291° |
| 2026-04-29 16:16 | 19.38174 | 88.14512 | 33850 ft | 483 kts | 291° |
| 2026-04-29 16:16 | 19.40672 | 88.07902 | 33847 ft | 483 kts | 291° |
| 2026-04-29 16:17 | 19.43127 | 88.01393 | 33843 ft | 476 kts | 291° |
| 2026-04-29 16:17 | 19.45576 | 87.94904 | 33852 ft | 474 kts | 291° |
| 2026-04-29 16:18 | 19.48034 | 87.88380 | 33846 ft | 478 kts | 291° |
| 2026-04-29 16:18 | 19.50493 | 87.81836 | 33846 ft | 478 kts | 291° |
| 2026-04-29 16:19 | 19.52952 | 87.75285 | 33846 ft | 478 kts | 291° |
| 2026-04-29 16:19 | 19.55392 | 87.68776 | 33836 ft | 478 kts | 291° |
| 2026-04-29 16:20 | 19.57836 | 87.62251 | 33840 ft | 476 kts | 291° |
| 2026-04-29 16:20 | 19.60277 | 87.55730 | 33840 ft | 475 kts | 291° |
| 2026-04-29 16:21 | 19.62714 | 87.49208 | 33837 ft | 476 kts | 291° |
| 2026-04-29 16:21 | 19.65146 | 87.42690 | 33837 ft | 476 kts | 291° |
| 2026-04-29 16:22 | 19.67562 | 87.36208 | 33829 ft | 476 kts | 291° |
| 2026-04-29 16:22 | 19.69992 | 87.29683 | 33828 ft | 475 kts | 290° |
| 2026-04-29 16:23 | 19.72411 | 87.23178 | 33829 ft | 473 kts | 290° |
| 2026-04-29 16:23 | 19.74821 | 87.16685 | 33829 ft | 473 kts | 290° |
| 2026-04-29 16:24 | 19.77213 | 87.10234 | 33829 ft | 473 kts | 290° |
| 2026-04-29 16:24 | 19.79625 | 87.03715 | 33824 ft | 478 kts | 290° |
| 2026-04-29 16:25 | 19.82063 | 86.97123 | 33824 ft | 480 kts | 290° |
| 2026-04-29 16:25 | 19.84502 | 86.90526 | 33813 ft | 479 kts | 290° |
| 2026-04-29 16:26 | 19.86907 | 86.84009 | 33813 ft | 476 kts | 290° |
| 2026-04-29 16:26 | 19.89316 | 86.77469 | 33808 ft | 475 kts | 290° |
| 2026-04-29 16:27 | 19.91723 | 86.70926 | 33795 ft | 475 kts | 290° |
| 2026-04-29 16:27 | 19.94131 | 86.64385 | 33792 ft | 475 kts | 290° |
| 2026-04-29 16:28 | 19.96530 | 86.57835 | 33782 ft | 475 kts | 290° |
| 2026-04-29 16:28 | 19.98915 | 86.51319 | 33781 ft | 477 kts | 289° |
| 2026-04-29 16:29 | 20.01320 | 86.44742 | 33771 ft | 478 kts | 289° |
| 2026-04-29 16:29 | 20.03726 | 86.38159 | 33759 ft | 478 kts | 289° |
| 2026-04-29 16:30 | 20.06130 | 86.31573 | 33748 ft | 478 kts | 289° |
| 2026-04-29 16:30 | 20.08514 | 86.25030 | 33750 ft | 478 kts | 289° |
| 2026-04-29 16:31 | 20.10914 | 86.18439 | 33759 ft | 478 kts | 289° |
| 2026-04-29 16:31 | 20.13318 | 86.11850 | 33736 ft | 477 kts | 290° |
| 2026-04-29 16:32 | 20.15719 | 86.05265 | 33728 ft | 477 kts | 290° |
| 2026-04-29 16:32 | 20.18101 | 85.98722 | 33720 ft | 477 kts | 290° |
| 2026-04-29 16:33 | 20.21693 | 85.88840 | 33719 ft | 477 kts | 290° |
| 2026-04-29 16:33 | 20.23982 | 85.82214 | 33719 ft | 476 kts | 284° |
| 2026-04-29 16:34 | 20.25203 | 85.75347 | 33719 ft | 475 kts | 277° |
| 2026-04-29 16:34 | 20.26109 | 85.68378 | 33718 ft | 475 kts | 277° |
| 2026-04-29 16:35 | 20.26965 | 85.61404 | 33714 ft | 475 kts | 277° |
| 2026-04-29 16:35 | 20.27829 | 85.54430 | 33714 ft | 475 kts | 277° |
| 2026-04-29 16:36 | 20.28702 | 85.47456 | 33711 ft | 475 kts | 277° |
| 2026-04-29 16:36 | 20.29572 | 85.40520 | 33719 ft | 476 kts | 277° |
| 2026-04-29 16:37 | 20.30448 | 85.33504 | 33715 ft | 479 kts | 277° |
| 2026-04-29 16:37 | 20.31177 | 85.27648 | 33717 ft | 480 kts | 277° |
| 2026-04-29 16:38 | 20.32199 | 85.19403 | 33722 ft | 480 kts | 277° |
| 2026-04-29 16:38 | 20.33065 | 85.12395 | 33722 ft | 480 kts | 277° |
| 2026-04-29 16:39 | 20.33933 | 85.05346 | 33726 ft | 480 kts | 277° |
| 2026-04-29 16:39 | 20.34802 | 84.98265 | 33728 ft | 483 kts | 277° |
| 2026-04-29 16:40 | 20.35672 | 84.91152 | 33732 ft | 485 kts | 277° |
| 2026-04-29 16:40 | 20.36535 | 84.84075 | 33732 ft | 485 kts | 277° |
| 2026-04-29 16:41 | 20.37401 | 84.76946 | 33753 ft | 485 kts | 277° |
| 2026-04-29 16:41 | 20.38264 | 84.69817 | 33755 ft | 485 kts | 277° |
| 2026-04-29 16:42 | 20.39123 | 84.62692 | 33761 ft | 485 kts | 278° |
| 2026-04-29 16:42 | 20.39981 | 84.55547 | 33752 ft | 488 kts | 278° |
| 2026-04-29 16:43 | 20.40837 | 84.48410 | 33762 ft | 489 kts | 278° |
| 2026-04-29 16:43 | 20.41697 | 84.41210 | 33762 ft | 489 kts | 278° |
| 2026-04-29 16:44 | 20.42552 | 84.34017 | 33774 ft | 489 kts | 278° |
| 2026-04-29 16:44 | 20.43405 | 84.26823 | 33775 ft | 489 kts | 278° |
| 2026-04-29 16:45 | 20.44244 | 84.19707 | 33777 ft | 486 kts | 278° |
| 2026-04-29 16:45 | 20.45085 | 84.12572 | 33777 ft | 485 kts | 278° |
| 2026-04-29 16:46 | 20.45923 | 84.05431 | 33769 ft | 485 kts | 278° |
| 2026-04-29 16:46 | 20.46756 | 83.98299 | 33767 ft | 485 kts | 278° |
| 2026-04-29 16:47 | 20.47583 | 83.91201 | 33769 ft | 485 kts | 278° |
| 2026-04-29 16:47 | 20.48405 | 83.84100 | 33754 ft | 479 kts | 278° |
| 2026-04-29 16:48 | 20.49217 | 83.77071 | 33755 ft | 477 kts | 278° |
| 2026-04-29 16:48 | 20.50026 | 83.70051 | 33735 ft | 477 kts | 278° |
| 2026-04-29 16:49 | 20.50833 | 83.63028 | 33736 ft | 477 kts | 278° |
| 2026-04-29 16:49 | 20.51637 | 83.55999 | 33733 ft | 477 kts | 278° |
| 2026-04-29 16:50 | 20.52431 | 83.49027 | 33733 ft | 476 kts | 278° |
| 2026-04-29 16:50 | 20.53226 | 83.42024 | 33736 ft | 475 kts | 278° |
| 2026-04-29 16:51 | 20.54018 | 83.35025 | 33739 ft | 475 kts | 278° |
| 2026-04-29 16:51 | 20.54808 | 83.28018 | 33741 ft | 475 kts | 278° |
| 2026-04-29 16:52 | 20.55590 | 83.21061 | 33736 ft | 475 kts | 278° |
| 2026-04-29 16:52 | 20.56374 | 83.14051 | 33739 ft | 476 kts | 278° |
| 2026-04-29 16:53 | 20.57157 | 83.07039 | 33738 ft | 476 kts | 278° |
| 2026-04-29 16:53 | 20.57936 | 83.00017 | 33745 ft | 477 kts | 278° |
| 2026-04-29 16:54 | 20.58725 | 82.92995 | 33747 ft | 476 kts | 279° |
| 2026-04-29 16:54 | 20.59655 | 82.86048 | 33739 ft | 476 kts | 280° |
| 2026-04-29 16:55 | 20.60637 | 82.79052 | 33751 ft | 476 kts | 280° |
| 2026-04-29 16:55 | 20.61593 | 82.72065 | 33752 ft | 476 kts | 279° |
| 2026-04-29 16:56 | 20.62524 | 82.65125 | 33756 ft | 475 kts | 279° |
| 2026-04-29 16:56 | 20.63453 | 82.58141 | 33757 ft | 475 kts | 279° |
| 2026-04-29 16:57 | 20.64379 | 82.51163 | 33754 ft | 475 kts | 279° |
| 2026-04-29 16:57 | 20.65308 | 82.44141 | 33746 ft | 480 kts | 280° |
| 2026-04-29 16:58 | 20.66242 | 82.37070 | 33753 ft | 481 kts | 280° |
| 2026-04-29 16:58 | 20.67163 | 82.30062 | 33756 ft | 478 kts | 280° |
| 2026-04-29 16:59 | 20.68084 | 82.23041 | 33757 ft | 478 kts | 280° |
| 2026-04-29 16:59 | 20.69005 | 82.16006 | 33761 ft | 478 kts | 280° |
| 2026-04-29 17:00 | 20.69922 | 82.08972 | 33744 ft | 478 kts | 280° |
| 2026-04-29 17:00 | 20.70834 | 82.01944 | 33752 ft | 478 kts | 280° |
| 2026-04-29 17:01 | 20.71744 | 81.94917 | 33738 ft | 478 kts | 280° |
| 2026-04-29 17:01 | 20.72667 | 81.87938 | 33749 ft | 478 kts | 280° |
| 2026-04-29 17:02 | 20.73615 | 81.80901 | 33739 ft | 478 kts | 280° |
| 2026-04-29 17:02 | 20.74557 | 81.73873 | 33736 ft | 478 kts | 280° |
| 2026-04-29 17:03 | 20.75492 | 81.66849 | 33735 ft | 478 kts | 280° |
| 2026-04-29 17:03 | 20.76425 | 81.59803 | 33725 ft | 479 kts | 280° |
| 2026-04-29 17:04 | 20.77350 | 81.52796 | 33732 ft | 480 kts | 280° |
| 2026-04-29 17:04 | 20.78279 | 81.45735 | 33733 ft | 480 kts | 280° |
| 2026-04-29 17:05 | 20.79205 | 81.38676 | 33724 ft | 480 kts | 280° |
| 2026-04-29 17:05 | 20.80131 | 81.31611 | 33726 ft | 480 kts | 280° |
| 2026-04-29 17:06 | 20.81047 | 81.24601 | 33735 ft | 479 kts | 280° |
| 2026-04-29 17:06 | 20.81966 | 81.17546 | 33735 ft | 479 kts | 280° |
| 2026-04-29 17:07 | 20.82727 | 81.11692 | 33732 ft | 478 kts | 280° |
| 2026-04-29 17:07 | 20.83793 | 81.03458 | 33725 ft | 479 kts | 280° |
| 2026-04-29 17:08 | 20.84696 | 80.96463 | 33723 ft | 478 kts | 280° |
| 2026-04-29 17:08 | 20.85603 | 80.89413 | 33728 ft | 478 kts | 280° |
| 2026-04-29 17:09 | 20.86503 | 80.82383 | 33741 ft | 477 kts | 280° |
| 2026-04-29 17:09 | 20.87399 | 80.75356 | 33748 ft | 476 kts | 280° |
| 2026-04-29 17:10 | 20.88286 | 80.68384 | 33745 ft | 476 kts | 280° |
| 2026-04-29 17:10 | 20.89179 | 80.61375 | 33732 ft | 475 kts | 280° |
| 2026-04-29 17:11 | 20.90066 | 80.54374 | 33737 ft | 475 kts | 280° |
| 2026-04-29 17:11 | 20.90951 | 80.47345 | 33733 ft | 479 kts | 280° |
| 2026-04-29 17:12 | 20.91842 | 80.40261 | 33731 ft | 481 kts | 280° |
| 2026-04-29 17:12 | 20.92430 | 80.35569 | 33737 ft | 481 kts | 280° |
| 2026-04-29 17:13 | 20.93611 | 80.26122 | 33739 ft | 481 kts | 280° |
| 2026-04-29 17:13 | 20.94494 | 80.19031 | 33735 ft | 481 kts | 280° |
| 2026-04-29 17:14 | 20.95372 | 80.11940 | 33738 ft | 481 kts | 280° |
| 2026-04-29 17:14 | 20.96243 | 80.04899 | 33730 ft | 480 kts | 280° |
| 2026-04-29 17:15 | 20.97117 | 79.97809 | 33739 ft | 480 kts | 280° |
| 2026-04-29 17:15 | 20.97987 | 79.90725 | 33725 ft | 480 kts | 280° |
| 2026-04-29 17:16 | 20.98854 | 79.83641 | 33739 ft | 481 kts | 280° |
| 2026-04-29 17:16 | 20.99719 | 79.76549 | 33734 ft | 480 kts | 281° |
| 2026-04-29 17:17 | 21.00571 | 79.69527 | 33739 ft | 478 kts | 281° |
| 2026-04-29 17:17 | 21.01426 | 79.62471 | 33739 ft | 478 kts | 280° |
| 2026-04-29 17:18 | 21.02277 | 79.55421 | 33740 ft | 478 kts | 280° |
| 2026-04-29 17:18 | 21.03127 | 79.48360 | 33740 ft | 478 kts | 280° |
| 2026-04-29 17:19 | 21.03966 | 79.41352 | 33741 ft | 478 kts | 281° |
| 2026-04-29 17:19 | 21.04806 | 79.34306 | 33747 ft | 476 kts | 281° |
| 2026-04-29 17:20 | 21.05642 | 79.27279 | 33750 ft | 476 kts | 281° |
| 2026-04-29 17:20 | 21.06475 | 79.20261 | 33753 ft | 475 kts | 281° |
| 2026-04-29 17:21 | 21.07300 | 79.13281 | 33749 ft | 476 kts | 281° |
| 2026-04-29 17:21 | 21.08230 | 79.06281 | 33753 ft | 473 kts | 285° |
| 2026-04-29 17:22 | 21.10093 | 78.99562 | 33774 ft | 470 kts | 291° |
| 2026-04-29 17:22 | 21.12174 | 78.92933 | 33778 ft | 469 kts | 291° |
| 2026-04-29 17:23 | 21.14283 | 78.86321 | 33771 ft | 469 kts | 291° |
| 2026-04-29 17:23 | 21.16365 | 78.79750 | 33770 ft | 469 kts | 291° |
| 2026-04-29 17:24 | 21.18446 | 78.73135 | 33769 ft | 469 kts | 291° |
| 2026-04-29 17:24 | 21.20532 | 78.66512 | 33770 ft | 469 kts | 291° |
| 2026-04-29 17:25 | 21.22617 | 78.59892 | 33781 ft | 468 kts | 291° |
| 2026-04-29 17:25 | 21.24684 | 78.53324 | 33780 ft | 468 kts | 291° |
| 2026-04-29 17:26 | 21.26760 | 78.46714 | 33778 ft | 468 kts | 291° |
| 2026-04-29 17:26 | 21.28836 | 78.40094 | 33779 ft | 468 kts | 291° |
| 2026-04-29 17:27 | 21.30905 | 78.33482 | 33785 ft | 468 kts | 291° |
| 2026-04-29 17:27 | 21.32961 | 78.26905 | 33785 ft | 468 kts | 291° |
| 2026-04-29 17:28 | 21.35028 | 78.20282 | 33792 ft | 468 kts | 291° |
| 2026-04-29 17:28 | 21.37092 | 78.13660 | 33789 ft | 468 kts | 291° |
| 2026-04-29 17:29 | 21.39150 | 78.07042 | 33792 ft | 467 kts | 291° |
| 2026-04-29 17:29 | 21.40856 | 78.01550 | 33809 ft | 466 kts | 291° |
| 2026-04-29 17:30 | 21.43235 | 77.93882 | 33786 ft | 465 kts | 291° |
| 2026-04-29 17:30 | 21.45281 | 77.87271 | 33810 ft | 467 kts | 291° |
| 2026-04-29 17:31 | 21.47326 | 77.80659 | 33814 ft | 467 kts | 291° |
| 2026-04-29 17:31 | 21.49372 | 77.74037 | 33813 ft | 467 kts | 291° |
| 2026-04-29 17:32 | 21.51399 | 77.67460 | 33812 ft | 467 kts | 291° |
| 2026-04-29 17:32 | 21.53501 | 77.60866 | 33817 ft | 466 kts | 292° |
| 2026-04-29 17:33 | 21.55637 | 77.54291 | 33815 ft | 466 kts | 292° |
| 2026-04-29 17:33 | 21.57765 | 77.47713 | 33819 ft | 466 kts | 292° |
| 2026-04-29 17:34 | 21.59526 | 77.42235 | 33826 ft | 466 kts | 292° |
| 2026-04-29 17:34 | 21.61998 | 77.34588 | 33824 ft | 466 kts | 293° |
| 2026-04-29 17:35 | 21.64966 | 77.25890 | 33828 ft | 466 kts | 293° |
| 2026-04-29 17:36 | 21.67200 | 77.19352 | 33821 ft | 465 kts | 293° |
| 2026-04-29 17:36 | 21.69770 | 77.11765 | 33824 ft | 464 kts | 293° |
| 2026-04-29 17:37 | 21.71615 | 77.06299 | 33820 ft | 464 kts | 293° |
| 2026-04-29 17:37 | 21.73797 | 76.99822 | 33820 ft | 464 kts | 293° |
| 2026-04-29 17:38 | 21.75994 | 76.93290 | 33811 ft | 464 kts | 293° |
| 2026-04-29 17:38 | 21.78189 | 76.86758 | 33819 ft | 464 kts | 293° |
| 2026-04-29 17:39 | 21.80378 | 76.80232 | 33809 ft | 463 kts | 293° |
| 2026-04-29 17:39 | 21.82545 | 76.73759 | 33812 ft | 463 kts | 293° |
| 2026-04-29 17:40 | 21.84726 | 76.67239 | 33815 ft | 463 kts | 293° |
| 2026-04-29 17:40 | 21.86904 | 76.60717 | 33815 ft | 463 kts | 293° |
| 2026-04-29 17:41 | 21.89081 | 76.54190 | 33810 ft | 463 kts | 293° |
| 2026-04-29 17:41 | 21.91260 | 76.47661 | 33812 ft | 463 kts | 293° |
| 2026-04-29 17:42 | 21.93412 | 76.41181 | 33818 ft | 463 kts | 293° |
| 2026-04-29 17:42 | 21.95578 | 76.34649 | 33818 ft | 463 kts | 293° |
| 2026-04-29 17:43 | 21.97742 | 76.28119 | 33818 ft | 463 kts | 293° |
| 2026-04-29 17:43 | 21.99903 | 76.21587 | 33815 ft | 463 kts | 293° |
| 2026-04-29 17:44 | 22.02048 | 76.15097 | 33815 ft | 463 kts | 293° |
| 2026-04-29 17:44 | 22.04205 | 76.08559 | 33818 ft | 463 kts | 293° |
| 2026-04-29 17:45 | 22.06362 | 76.02012 | 33823 ft | 463 kts | 293° |
| 2026-04-29 17:45 | 22.08489 | 75.95453 | 33823 ft | 464 kts | 292° |
| 2026-04-29 17:46 | 22.10497 | 75.88842 | 33822 ft | 464 kts | 292° |
| 2026-04-29 17:46 | 22.12477 | 75.82269 | 33823 ft | 464 kts | 292° |
| 2026-04-29 17:47 | 22.14488 | 75.75652 | 33824 ft | 464 kts | 292° |
| 2026-04-29 17:47 | 22.16506 | 75.69042 | 33828 ft | 463 kts | 292° |
| 2026-04-29 17:48 | 22.18514 | 75.62457 | 33832 ft | 461 kts | 292° |
| 2026-04-29 17:48 | 22.20501 | 75.55931 | 33832 ft | 461 kts | 292° |
| 2026-04-29 17:49 | 22.22500 | 75.49358 | 33826 ft | 461 kts | 292° |
| 2026-04-29 17:49 | 22.24496 | 75.42779 | 33829 ft | 461 kts | 292° |
| 2026-04-29 17:50 | 22.26492 | 75.36189 | 33828 ft | 462 kts | 292° |
| 2026-04-29 17:50 | 22.28489 | 75.29587 | 33820 ft | 463 kts | 292° |
| 2026-04-29 17:51 | 22.30470 | 75.23030 | 33828 ft | 462 kts | 292° |
| 2026-04-29 17:51 | 22.32459 | 75.16432 | 33818 ft | 462 kts | 292° |
| 2026-04-29 17:52 | 22.34448 | 75.09823 | 33818 ft | 462 kts | 292° |
| 2026-04-29 17:52 | 22.36433 | 75.03217 | 33809 ft | 463 kts | 292° |
| 2026-04-29 17:53 | 22.38424 | 74.96582 | 33818 ft | 465 kts | 292° |
| 2026-04-29 17:53 | 22.40399 | 74.89986 | 33818 ft | 464 kts | 292° |
| 2026-04-29 17:54 | 22.42378 | 74.83365 | 33820 ft | 462 kts | 292° |
| 2026-04-29 17:54 | 22.44351 | 74.76754 | 33816 ft | 462 kts | 292° |
| 2026-04-29 17:55 | 22.46324 | 74.70138 | 33815 ft | 462 kts | 292° |
| 2026-04-29 17:55 | 22.48279 | 74.63568 | 33812 ft | 462 kts | 292° |
| 2026-04-29 17:56 | 22.50245 | 74.56950 | 33813 ft | 462 kts | 292° |
| 2026-04-29 17:56 | 22.52208 | 74.50329 | 33813 ft | 462 kts | 292° |
| 2026-04-29 17:57 | 22.54167 | 74.43711 | 33812 ft | 462 kts | 292° |
| 2026-04-29 17:57 | 22.56126 | 74.37086 | 33812 ft | 462 kts | 292° |
| 2026-04-29 17:58 | 22.58069 | 74.30505 | 33806 ft | 463 kts | 292° |
| 2026-04-29 17:58 | 22.60025 | 74.23865 | 33809 ft | 463 kts | 292° |
| 2026-04-29 17:59 | 22.61992 | 74.17224 | 33803 ft | 463 kts | 292° |
| 2026-04-29 17:59 | 22.63970 | 74.10598 | 33805 ft | 462 kts | 292° |
| 2026-04-29 18:00 | 22.65909 | 74.04039 | 33797 ft | 460 kts | 292° |
| 2026-04-29 18:00 | 22.67848 | 73.97448 | 33798 ft | 459 kts | 292° |
| 2026-04-29 18:01 | 22.69788 | 73.90851 | 33791 ft | 460 kts | 292° |
| 2026-04-29 18:01 | 22.71727 | 73.84249 | 33787 ft | 460 kts | 292° |
| 2026-04-29 18:02 | 22.73651 | 73.77689 | 33775 ft | 460 kts | 292° |
| 2026-04-29 18:02 | 22.75586 | 73.71082 | 33775 ft | 460 kts | 292° |
| 2026-04-29 18:03 | 22.77518 | 73.64471 | 33753 ft | 460 kts | 292° |
| 2026-04-29 18:03 | 22.79449 | 73.57855 | 33767 ft | 461 kts | 292° |
| 2026-04-29 18:04 | 22.81370 | 73.51279 | 33767 ft | 461 kts | 292° |
| 2026-04-29 18:04 | 22.83303 | 73.44658 | 33758 ft | 461 kts | 292° |
| 2026-04-29 18:05 | 22.85232 | 73.38040 | 33753 ft | 461 kts | 292° |
| 2026-04-29 18:05 | 22.87160 | 73.31416 | 33751 ft | 460 kts | 292° |
| 2026-04-29 18:06 | 22.89065 | 73.24840 | 33752 ft | 460 kts | 292° |
| 2026-04-29 18:06 | 22.90986 | 73.18203 | 33749 ft | 461 kts | 292° |
| 2026-04-29 18:07 | 22.92902 | 73.11573 | 33754 ft | 461 kts | 291° |
| 2026-04-29 18:07 | 22.94817 | 73.04933 | 33749 ft | 461 kts | 291° |
| 2026-04-29 18:08 | 22.96730 | 72.98291 | 33749 ft | 461 kts | 291° |
| 2026-04-29 18:08 | 22.98626 | 72.91697 | 33748 ft | 461 kts | 291° |
| 2026-04-29 18:09 | 23.00536 | 72.85044 | 33748 ft | 462 kts | 291° |
| 2026-04-29 18:09 | 23.02446 | 72.78380 | 33746 ft | 462 kts | 291° |
| 2026-04-29 18:10 | 23.04352 | 72.71715 | 33747 ft | 462 kts | 291° |
| 2026-04-29 18:10 | 23.06031 | 72.65015 | 33747 ft | 467 kts | 284° |
| 2026-04-29 18:11 | 23.06168 | 72.57894 | 33749 ft | 479 kts | 269° |
| 2026-04-29 18:11 | 23.05263 | 72.50692 | 33746 ft | 483 kts | 267° |
| 2026-04-29 18:12 | 23.04202 | 72.43475 | 33747 ft | 484 kts | 267° |
| 2026-04-29 18:12 | 23.03157 | 72.36311 | 33746 ft | 484 kts | 267° |
| 2026-04-29 18:13 | 23.02129 | 72.29097 | 33749 ft | 483 kts | 267° |
| 2026-04-29 18:13 | 23.01110 | 72.21890 | 33750 ft | 484 kts | 266° |
| 2026-04-29 18:14 | 23.00086 | 72.14667 | 33749 ft | 484 kts | 266° |
| 2026-04-29 18:14 | 22.99056 | 72.07444 | 33749 ft | 484 kts | 266° |
| 2026-04-29 18:15 | 22.98029 | 72.00263 | 33749 ft | 484 kts | 266° |
| 2026-04-29 18:15 | 22.96994 | 71.93045 | 33755 ft | 485 kts | 266° |
| 2026-04-29 18:16 | 22.95954 | 71.85819 | 33756 ft | 485 kts | 266° |
| 2026-04-29 18:16 | 22.94910 | 71.78593 | 33758 ft | 484 kts | 266° |
| 2026-04-29 18:17 | 22.93871 | 71.71423 | 33761 ft | 484 kts | 266° |
| 2026-04-29 18:17 | 22.92821 | 71.64203 | 33764 ft | 484 kts | 266° |
| 2026-04-29 18:18 | 22.91768 | 71.56983 | 33766 ft | 484 kts | 266° |
| 2026-04-29 18:18 | 22.90714 | 71.49766 | 33772 ft | 485 kts | 266° |
| 2026-04-29 18:19 | 22.89659 | 71.42579 | 33775 ft | 486 kts | 266° |
| 2026-04-29 18:19 | 22.88594 | 71.35348 | 33774 ft | 486 kts | 266° |
| 2026-04-29 18:20 | 22.87525 | 71.28118 | 33773 ft | 486 kts | 266° |
| 2026-04-29 18:20 | 22.86454 | 71.20891 | 33774 ft | 486 kts | 266° |
| 2026-04-29 18:21 | 22.85379 | 71.13663 | 33772 ft | 486 kts | 266° |
| 2026-04-29 18:21 | 22.84307 | 71.06476 | 33774 ft | 486 kts | 266° |
| 2026-04-29 18:22 | 22.83226 | 70.99253 | 33783 ft | 486 kts | 266° |
| 2026-04-29 18:22 | 22.82142 | 70.92026 | 33781 ft | 486 kts | 266° |
| 2026-04-29 18:23 | 22.81126 | 70.84796 | 33785 ft | 483 kts | 269° |
| 2026-04-29 18:23 | 22.81178 | 70.77626 | 33769 ft | 478 kts | 277° |
| 2026-04-29 18:24 | 22.81612 | 70.70432 | 33779 ft | 478 kts | 278° |
| 2026-04-29 18:24 | 22.82098 | 70.63250 | 33776 ft | 478 kts | 278° |
| 2026-04-29 18:25 | 22.82568 | 70.56064 | 33785 ft | 478 kts | 278° |
| 2026-04-29 18:25 | 22.83019 | 70.48927 | 33781 ft | 478 kts | 277° |
| 2026-04-29 18:26 | 22.83463 | 70.41735 | 33788 ft | 477 kts | 277° |
| 2026-04-29 18:26 | 22.83903 | 70.34564 | 33775 ft | 476 kts | 277° |
| 2026-04-29 18:27 | 22.84341 | 70.27402 | 33788 ft | 476 kts | 277° |
| 2026-04-29 18:27 | 22.84773 | 70.20288 | 33771 ft | 476 kts | 277° |
| 2026-04-29 18:28 | 22.85205 | 70.13128 | 33788 ft | 476 kts | 277° |
| 2026-04-29 18:28 | 22.85634 | 70.05950 | 33784 ft | 477 kts | 277° |
| 2026-04-29 18:29 | 22.86059 | 69.98782 | 33779 ft | 477 kts | 277° |
| 2026-04-29 18:29 | 22.86482 | 69.91608 | 33782 ft | 477 kts | 277° |
| 2026-04-29 18:30 | 22.86898 | 69.84488 | 33775 ft | 476 kts | 277° |
| 2026-04-29 18:30 | 22.87315 | 69.77315 | 33776 ft | 477 kts | 277° |
| 2026-04-29 18:31 | 22.87728 | 69.70137 | 33776 ft | 477 kts | 277° |
| 2026-04-29 18:31 | 22.88173 | 69.62957 | 33780 ft | 477 kts | 277° |
| 2026-04-29 18:32 | 22.88642 | 69.55834 | 33784 ft | 477 kts | 277° |
| 2026-04-29 18:32 | 22.89338 | 69.45070 | 33780 ft | 477 kts | 277° |
| 2026-04-29 18:33 | 22.89792 | 69.37900 | 33780 ft | 477 kts | 277° |
| 2026-04-29 18:33 | 22.90242 | 69.30718 | 33778 ft | 477 kts | 277° |
| 2026-04-29 18:34 | 22.90614 | 69.24755 | 33778 ft | 477 kts | 277° |
| 2026-04-29 18:34 | 22.91130 | 69.16409 | 33775 ft | 477 kts | 277° |
| 2026-04-29 18:35 | 22.91571 | 69.09226 | 33773 ft | 477 kts | 277° |
| 2026-04-29 18:35 | 22.92009 | 69.02043 | 33766 ft | 477 kts | 277° |
| 2026-04-29 18:36 | 22.92441 | 68.94902 | 33766 ft | 477 kts | 277° |
| 2026-04-29 18:36 | 22.92872 | 68.87720 | 33763 ft | 476 kts | 277° |
| 2026-04-29 18:37 | 22.93299 | 68.80562 | 33759 ft | 475 kts | 276° |
| 2026-04-29 18:37 | 22.93723 | 68.73400 | 33766 ft | 476 kts | 276° |
| 2026-04-29 18:38 | 22.94140 | 68.66284 | 33765 ft | 476 kts | 276° |
| 2026-04-29 18:38 | 22.94557 | 68.59127 | 33771 ft | 476 kts | 276° |
| 2026-04-29 18:39 | 22.94971 | 68.51960 | 33768 ft | 476 kts | 276° |
| 2026-04-29 18:39 | 22.95384 | 68.44784 | 33766 ft | 477 kts | 276° |
| 2026-04-29 18:40 | 22.95790 | 68.37646 | 33758 ft | 477 kts | 276° |
| 2026-04-29 18:40 | 22.95964 | 68.30435 | 33761 ft | 479 kts | 272° |
| 2026-04-29 18:41 | 22.95808 | 68.15978 | 33761 ft | 479 kts | 272° |
| 2026-04-29 18:42 | 22.95791 | 68.08746 | 33760 ft | 479 kts | 272° |
| 2026-04-29 18:42 | 22.95790 | 68.01572 | 33760 ft | 479 kts | 272° |
| 2026-04-29 18:43 | 22.95787 | 67.94348 | 33764 ft | 479 kts | 272° |
| 2026-04-29 18:43 | 22.95779 | 67.87114 | 33756 ft | 479 kts | 272° |
| 2026-04-29 18:44 | 22.95790 | 67.79892 | 33758 ft | 479 kts | 273° |
| 2026-04-29 18:44 | 22.95810 | 67.72663 | 33764 ft | 479 kts | 273° |
| 2026-04-29 18:45 | 22.95826 | 67.65492 | 33760 ft | 479 kts | 273° |
| 2026-04-29 18:45 | 22.95835 | 67.58266 | 33763 ft | 479 kts | 272° |
| 2026-04-29 18:46 | 22.95841 | 67.51041 | 33761 ft | 479 kts | 272° |
| 2026-04-29 18:46 | 22.95844 | 67.43800 | 33759 ft | 480 kts | 272° |
| 2026-04-29 18:47 | 22.95843 | 67.36600 | 33756 ft | 480 kts | 272° |
| 2026-04-29 18:47 | 22.95839 | 67.29357 | 33755 ft | 480 kts | 272° |
| 2026-04-29 18:48 | 22.95831 | 67.22113 | 33756 ft | 480 kts | 272° |
| 2026-04-29 18:48 | 22.95822 | 67.14856 | 33756 ft | 481 kts | 272° |
| 2026-04-29 18:49 | 22.95808 | 67.07592 | 33755 ft | 481 kts | 272° |
| 2026-04-29 18:49 | 22.95789 | 67.00392 | 33759 ft | 479 kts | 272° |
| 2026-04-29 18:50 | 22.95778 | 66.93180 | 33758 ft | 477 kts | 272° |
| 2026-04-29 18:50 | 22.95825 | 66.85977 | 33757 ft | 477 kts | 272° |
| 2026-04-29 18:51 | 22.95881 | 66.78767 | 33757 ft | 479 kts | 272° |
| 2026-04-29 18:51 | 22.95926 | 66.71584 | 33761 ft | 479 kts | 272° |
| 2026-04-29 18:52 | 22.95962 | 66.64362 | 33753 ft | 479 kts | 272° |
| 2026-04-29 18:52 | 22.95993 | 66.57137 | 33754 ft | 479 kts | 272° |
| 2026-04-29 18:53 | 22.96022 | 66.49908 | 33753 ft | 480 kts | 272° |
| 2026-04-29 18:53 | 22.96047 | 66.42673 | 33759 ft | 480 kts | 272° |
| 2026-04-29 18:54 | 22.96069 | 66.35483 | 33755 ft | 480 kts | 272° |
| 2026-04-29 18:54 | 22.96088 | 66.28251 | 33755 ft | 480 kts | 272° |
| 2026-04-29 18:55 | 22.96105 | 66.21001 | 33755 ft | 480 kts | 272° |
| 2026-04-29 18:55 | 22.96117 | 66.13758 | 33758 ft | 480 kts | 272° |
| 2026-04-29 18:56 | 22.96126 | 66.06510 | 33758 ft | 480 kts | 272° |
| 2026-04-29 18:56 | 22.96132 | 65.99312 | 33757 ft | 481 kts | 272° |
| 2026-04-29 18:57 | 22.96135 | 65.92061 | 33752 ft | 481 kts | 271° |
| 2026-04-29 18:57 | 22.96134 | 65.84811 | 33758 ft | 481 kts | 271° |
| 2026-04-29 18:58 | 22.96130 | 65.77557 | 33757 ft | 481 kts | 271° |
| 2026-04-29 18:58 | 22.96123 | 65.70306 | 33758 ft | 481 kts | 271° |
| 2026-04-29 18:59 | 22.96112 | 65.63097 | 33757 ft | 481 kts | 271° |
| 2026-04-29 18:59 | 22.96099 | 65.55842 | 33756 ft | 481 kts | 271° |
| 2026-04-29 19:00 | 22.96082 | 65.48582 | 33759 ft | 481 kts | 271° |
| 2026-04-29 19:00 | 22.96061 | 65.41321 | 33761 ft | 481 kts | 271° |
| 2026-04-29 19:01 | 22.96038 | 65.34114 | 33760 ft | 481 kts | 271° |
| 2026-04-29 19:01 | 22.96011 | 65.26858 | 33759 ft | 481 kts | 271° |
| 2026-04-29 19:02 | 22.95986 | 65.20819 | 33760 ft | 481 kts | 271° |
| 2026-04-29 19:02 | 22.95947 | 65.12333 | 33756 ft | 481 kts | 271° |
| 2026-04-29 19:03 | 22.95909 | 65.05092 | 33759 ft | 479 kts | 271° |
| 2026-04-29 19:03 | 22.95870 | 64.97906 | 33758 ft | 479 kts | 271° |
| 2026-04-29 19:04 | 22.95827 | 64.90680 | 33756 ft | 479 kts | 271° |
| 2026-04-29 19:04 | 22.95861 | 64.83458 | 33755 ft | 478 kts | 275° |
| 2026-04-29 19:05 | 22.96512 | 64.76280 | 33755 ft | 478 kts | 277° |
| 2026-04-29 19:05 | 22.97268 | 64.69171 | 33755 ft | 478 kts | 277° |
| 2026-04-29 19:06 | 22.98044 | 64.62001 | 33758 ft | 478 kts | 277° |
| 2026-04-29 19:07 | 22.99186 | 64.51255 | 33757 ft | 478 kts | 277° |
| 2026-04-29 19:07 | 22.99937 | 64.44086 | 33758 ft | 478 kts | 277° |
| 2026-04-29 19:08 | 23.00678 | 64.36976 | 33757 ft | 478 kts | 277° |
| 2026-04-29 19:08 | 23.01424 | 64.29805 | 33759 ft | 478 kts | 277° |
| 2026-04-29 19:09 | 23.02166 | 64.22633 | 33760 ft | 478 kts | 277° |
| 2026-04-29 19:09 | 23.02905 | 64.15459 | 33761 ft | 478 kts | 277° |
| 2026-04-29 19:10 | 23.03636 | 64.08324 | 33758 ft | 478 kts | 277° |
| 2026-04-29 19:10 | 23.04369 | 64.01148 | 33759 ft | 479 kts | 277° |
| 2026-04-29 19:11 | 23.05100 | 63.93958 | 33764 ft | 479 kts | 277° |
| 2026-04-29 19:11 | 23.05827 | 63.86766 | 33762 ft | 479 kts | 277° |
| 2026-04-29 19:12 | 23.06567 | 63.79578 | 33763 ft | 479 kts | 277° |
| 2026-04-29 19:12 | 23.07318 | 63.72437 | 33757 ft | 479 kts | 277° |
| 2026-04-29 19:13 | 23.08069 | 63.65246 | 33757 ft | 479 kts | 277° |
| 2026-04-29 19:13 | 23.08814 | 63.58050 | 33760 ft | 479 kts | 277° |
| 2026-04-29 19:14 | 23.09554 | 63.50848 | 33760 ft | 480 kts | 277° |
| 2026-04-29 19:14 | 23.10286 | 63.43697 | 33761 ft | 479 kts | 276° |
| 2026-04-29 19:15 | 23.11019 | 63.36504 | 33758 ft | 479 kts | 276° |
| 2026-04-29 19:15 | 23.11749 | 63.29311 | 33757 ft | 479 kts | 276° |
| 2026-04-29 19:16 | 23.12476 | 63.22115 | 33757 ft | 479 kts | 276° |
| 2026-04-29 19:16 | 23.13199 | 63.14925 | 33757 ft | 479 kts | 276° |
| 2026-04-29 19:17 | 23.13914 | 63.07774 | 33763 ft | 479 kts | 276° |
| 2026-04-29 19:17 | 23.14632 | 63.00566 | 33763 ft | 480 kts | 276° |
| 2026-04-29 19:18 | 23.15346 | 62.93365 | 33757 ft | 479 kts | 276° |
| 2026-04-29 19:18 | 23.16055 | 62.86184 | 33757 ft | 477 kts | 276° |
| 2026-04-29 19:19 | 23.16755 | 62.79060 | 33758 ft | 477 kts | 276° |
| 2026-04-29 19:19 | 23.17456 | 62.71893 | 33764 ft | 477 kts | 276° |
| 2026-04-29 19:20 | 23.18153 | 62.64720 | 33760 ft | 477 kts | 276° |
| 2026-04-29 19:20 | 23.18848 | 62.57547 | 33760 ft | 477 kts | 276° |
| 2026-04-29 19:21 | 23.19539 | 62.50373 | 33754 ft | 477 kts | 276° |
| 2026-04-29 19:21 | 23.20223 | 62.43245 | 33753 ft | 477 kts | 276° |
| 2026-04-29 19:22 | 23.20908 | 62.36068 | 33758 ft | 477 kts | 276° |
| 2026-04-29 19:22 | 23.21590 | 62.28887 | 33760 ft | 478 kts | 276° |
| 2026-04-29 19:23 | 23.22268 | 62.21705 | 33758 ft | 477 kts | 276° |
| 2026-04-29 19:23 | 23.22939 | 62.14570 | 33758 ft | 478 kts | 276° |
| 2026-04-29 19:24 | 23.23611 | 62.07389 | 33754 ft | 478 kts | 276° |
| 2026-04-29 19:24 | 23.24281 | 62.00201 | 33761 ft | 478 kts | 275° |
| 2026-04-29 19:25 | 23.24947 | 61.93015 | 33758 ft | 477 kts | 275° |
| 2026-04-29 19:25 | 23.25607 | 61.85855 | 33763 ft | 475 kts | 275° |
| 2026-04-29 19:26 | 23.26259 | 61.78750 | 33762 ft | 475 kts | 275° |
| 2026-04-29 19:26 | 23.26912 | 61.71597 | 33757 ft | 475 kts | 275° |
| 2026-04-29 19:27 | 23.27561 | 61.64444 | 33756 ft | 475 kts | 275° |
| 2026-04-29 19:27 | 23.28207 | 61.57293 | 33758 ft | 475 kts | 275° |
| 2026-04-29 19:28 | 23.28847 | 61.50183 | 33759 ft | 475 kts | 275° |
| 2026-04-29 19:28 | 23.29486 | 61.43035 | 33764 ft | 475 kts | 275° |
| 2026-04-29 19:29 | 23.30123 | 61.35880 | 33758 ft | 475 kts | 275° |
| 2026-04-29 19:29 | 23.30757 | 61.28718 | 33761 ft | 476 kts | 275° |
| 2026-04-29 19:30 | 23.31388 | 61.21550 | 33762 ft | 476 kts | 275° |
| 2026-04-29 19:30 | 23.32058 | 61.14428 | 33763 ft | 476 kts | 277° |
| 2026-04-29 19:31 | 23.32978 | 61.07288 | 33761 ft | 476 kts | 278° |
| 2026-04-29 19:31 | 23.33934 | 61.00150 | 33760 ft | 477 kts | 277° |
| 2026-04-29 19:32 | 23.34852 | 60.93010 | 33759 ft | 476 kts | 277° |
| 2026-04-29 19:32 | 23.35734 | 60.85935 | 33760 ft | 475 kts | 277° |
| 2026-04-29 19:33 | 23.36615 | 60.78814 | 33761 ft | 475 kts | 277° |
| 2026-04-29 19:33 | 23.37494 | 60.71685 | 33761 ft | 475 kts | 277° |
| 2026-04-29 19:34 | 23.38604 | 60.64586 | 33758 ft | 477 kts | 284° |
| 2026-04-29 19:34 | 23.40828 | 60.57775 | 33757 ft | 478 kts | 290° |
| 2026-04-29 19:35 | 23.43274 | 60.51086 | 33758 ft | 479 kts | 290° |
| 2026-04-29 19:35 | 23.45763 | 60.44364 | 33751 ft | 479 kts | 290° |
| 2026-04-29 19:36 | 23.48235 | 60.37632 | 33755 ft | 479 kts | 290° |
| 2026-04-29 19:36 | 23.50694 | 60.30888 | 33753 ft | 478 kts | 290° |
| 2026-04-29 19:37 | 23.53124 | 60.24206 | 33748 ft | 477 kts | 290° |
| 2026-04-29 19:37 | 23.55565 | 60.17480 | 33750 ft | 477 kts | 290° |
| 2026-04-29 19:38 | 23.58003 | 60.10754 | 33755 ft | 478 kts | 289° |
| 2026-04-29 19:38 | 23.60445 | 60.04010 | 33753 ft | 478 kts | 289° |
| 2026-04-29 19:39 | 23.62863 | 59.97319 | 33748 ft | 478 kts | 289° |
| 2026-04-29 19:39 | 23.65296 | 59.90580 | 33750 ft | 478 kts | 289° |
| 2026-04-29 19:40 | 23.67725 | 59.83839 | 33761 ft | 477 kts | 289° |
| 2026-04-29 19:40 | 23.70143 | 59.77119 | 33751 ft | 475 kts | 289° |
| 2026-04-29 19:41 | 23.72555 | 59.70406 | 33754 ft | 475 kts | 289° |
| 2026-04-29 19:41 | 23.74945 | 59.63740 | 33745 ft | 475 kts | 289° |
| 2026-04-29 19:42 | 23.77350 | 59.57023 | 33754 ft | 475 kts | 289° |
| 2026-04-29 19:42 | 23.79757 | 59.50290 | 33749 ft | 476 kts | 289° |
| 2026-04-29 19:43 | 23.82161 | 59.43557 | 33754 ft | 476 kts | 289° |
| 2026-04-29 19:43 | 23.84545 | 59.36868 | 33760 ft | 475 kts | 289° |
| 2026-04-29 19:44 | 23.86935 | 59.30153 | 33751 ft | 474 kts | 289° |
| 2026-04-29 19:44 | 23.89321 | 59.23435 | 33756 ft | 474 kts | 289° |
| 2026-04-29 19:45 | 23.91704 | 59.16717 | 33755 ft | 474 kts | 289° |
| 2026-04-29 19:45 | 23.94136 | 59.10063 | 33753 ft | 475 kts | 291° |
| 2026-04-29 19:46 | 23.96970 | 59.03527 | 33751 ft | 476 kts | 293° |
| 2026-04-29 19:46 | 23.99872 | 58.97009 | 33752 ft | 477 kts | 293° |
| 2026-04-29 19:47 | 24.02720 | 58.90452 | 33745 ft | 477 kts | 292° |
| 2026-04-29 19:47 | 24.05501 | 58.83940 | 33752 ft | 476 kts | 292° |
| 2026-04-29 19:48 | 24.08292 | 58.77372 | 33756 ft | 476 kts | 292° |
| 2026-04-29 19:48 | 24.11078 | 58.70812 | 33747 ft | 476 kts | 292° |
| 2026-04-29 19:49 | 24.13869 | 58.64245 | 33755 ft | 476 kts | 292° |
| 2026-04-29 19:49 | 24.16636 | 58.57727 | 33755 ft | 475 kts | 292° |
| 2026-04-29 19:50 | 24.19420 | 58.51154 | 33752 ft | 475 kts | 292° |
| 2026-04-29 19:50 | 24.22195 | 58.44595 | 33752 ft | 475 kts | 291° |
| 2026-04-29 19:51 | 24.24971 | 58.38024 | 33755 ft | 475 kts | 291° |
| 2026-04-29 19:51 | 24.27728 | 58.31489 | 33759 ft | 475 kts | 291° |
| 2026-04-29 19:52 | 24.30499 | 58.24912 | 33754 ft | 475 kts | 291° |
| 2026-04-29 19:52 | 24.33268 | 58.18330 | 33758 ft | 476 kts | 291° |
| 2026-04-29 19:53 | 24.36037 | 58.11737 | 33764 ft | 476 kts | 291° |
| 2026-04-29 19:53 | 24.38807 | 58.05135 | 33760 ft | 475 kts | 291° |
| 2026-04-29 19:54 | 24.42919 | 57.95316 | 33757 ft | 474 kts | 291° |
| 2026-04-29 19:54 | 24.45668 | 57.88737 | 33762 ft | 474 kts | 291° |
| 2026-04-29 19:55 | 24.48417 | 57.82148 | 33771 ft | 475 kts | 291° |
| 2026-04-29 19:55 | 24.51130 | 57.75597 | 33755 ft | 474 kts | 290° |
| 2026-04-29 19:56 | 24.53672 | 57.68917 | 33755 ft | 474 kts | 289° |
| 2026-04-29 19:56 | 24.56157 | 57.62217 | 33757 ft | 474 kts | 289° |
| 2026-04-29 19:57 | 24.58245 | 57.56644 | 33757 ft | 474 kts | 289° |
| 2026-04-29 19:57 | 24.61181 | 57.48867 | 33760 ft | 474 kts | 289° |
| 2026-04-29 19:58 | 24.63713 | 57.42172 | 33758 ft | 474 kts | 289° |
| 2026-04-29 19:58 | 24.66242 | 57.35473 | 33779 ft | 475 kts | 289° |
| 2026-04-29 19:59 | 24.68780 | 57.28750 | 33770 ft | 476 kts | 289° |
| 2026-04-29 19:59 | 24.71305 | 57.22026 | 33765 ft | 474 kts | 289° |
| 2026-04-29 20:00 | 24.73794 | 57.15394 | 33768 ft | 472 kts | 289° |
| 2026-04-29 20:00 | 24.76293 | 57.08722 | 33765 ft | 472 kts | 289° |
| 2026-04-29 20:01 | 24.78791 | 57.02043 | 33765 ft | 473 kts | 289° |
| 2026-04-29 20:01 | 24.81296 | 56.95338 | 33766 ft | 473 kts | 289° |
| 2026-04-29 20:02 | 24.83779 | 56.88683 | 33764 ft | 473 kts | 289° |
| 2026-04-29 20:02 | 24.85449 | 56.84201 | 33768 ft | 473 kts | 289° |
| 2026-04-29 20:03 | 24.88763 | 56.75293 | 33763 ft | 471 kts | 288° |
| 2026-04-29 20:03 | 24.91240 | 56.68619 | 33766 ft | 471 kts | 288° |
| 2026-04-29 20:04 | 24.93700 | 56.61981 | 33773 ft | 471 kts | 288° |
| 2026-04-29 20:04 | 24.96172 | 56.55301 | 33773 ft | 471 kts | 288° |
| 2026-04-29 20:05 | 24.98459 | 56.48539 | 33781 ft | 470 kts | 285° |
| 2026-04-29 20:05 | 25.00445 | 56.41690 | 33783 ft | 470 kts | 284° |
| 2026-04-29 20:06 | 25.02426 | 56.34884 | 33785 ft | 468 kts | 284° |
| 2026-04-29 20:06 | 25.04465 | 56.28071 | 33771 ft | 467 kts | 285° |
| 2026-04-29 20:07 | 25.06520 | 56.21262 | 33783 ft | 468 kts | 285° |
| 2026-04-29 20:07 | 25.08565 | 56.14460 | 33785 ft | 468 kts | 284° |
| 2026-04-29 20:08 | 25.09769 | 56.09913 | 33782 ft | 465 kts | 278° |
| 2026-04-29 20:08 | 25.11101 | 56.00555 | 33795 ft | 463 kts | 275° |
| 2026-04-29 20:09 | 25.11952 | 55.93515 | 33802 ft | 463 kts | 275° |
| 2026-04-29 20:09 | 25.12797 | 55.86463 | 33807 ft | 463 kts | 275° |
| 2026-04-29 20:10 | 25.13648 | 55.79441 | 33807 ft | 461 kts | 275° |
| 2026-04-29 20:10 | 25.14848 | 55.72532 | 33802 ft | 462 kts | 279° |
| 2026-04-29 20:11 | 25.16256 | 55.65600 | 33797 ft | 463 kts | 279° |
| 2026-04-29 20:11 | 25.17690 | 55.58671 | 33789 ft | 463 kts | 279° |
| 2026-04-29 20:12 | 25.18878 | 55.52912 | 33783 ft | 463 kts | 279° |
| 2026-04-29 20:12 | 25.20527 | 55.44864 | 33774 ft | 462 kts | 279° |
| 2026-04-29 20:13 | 25.21964 | 55.39112 | 33774 ft | 465 kts | 283° |
| 2026-04-29 20:13 | 25.24221 | 55.31197 | 33806 ft | 465 kts | 284° |
| 2026-04-29 20:14 | 25.26180 | 55.24446 | 33798 ft | 463 kts | 284° |
| 2026-04-29 20:14 | 25.28135 | 55.17685 | 33793 ft | 462 kts | 283° |
| 2026-04-29 20:15 | 25.30079 | 55.10926 | 33796 ft | 461 kts | 283° |
| 2026-04-29 20:15 | 25.31617 | 55.05287 | 33801 ft | 461 kts | 282° |
| 2026-04-29 20:16 | 25.33406 | 54.98484 | 33801 ft | 461 kts | 282° |
| 2026-04-29 20:16 | 25.35200 | 54.91685 | 33799 ft | 461 kts | 282° |
| 2026-04-29 20:17 | 25.37007 | 54.84889 | 33796 ft | 461 kts | 282° |
| 2026-04-29 20:17 | 25.38813 | 54.78107 | 33796 ft | 458 kts | 282° |
| 2026-04-29 20:18 | 25.40596 | 54.71397 | 33793 ft | 457 kts | 282° |
| 2026-04-29 20:18 | 25.42381 | 54.64660 | 33793 ft | 457 kts | 282° |
| 2026-04-29 20:19 | 25.44202 | 54.57926 | 33796 ft | 457 kts | 283° |
| 2026-04-29 20:19 | 25.46198 | 54.51237 | 33799 ft | 458 kts | 284° |
| 2026-04-29 20:20 | 25.48217 | 54.44558 | 33796 ft | 458 kts | 284° |
| 2026-04-29 20:20 | 25.50195 | 54.37914 | 33814 ft | 457 kts | 284° |
| 2026-04-29 20:21 | 25.52163 | 54.31235 | 33799 ft | 455 kts | 283° |
| 2026-04-29 20:21 | 25.54116 | 54.24578 | 33795 ft | 454 kts | 283° |
| 2026-04-29 20:22 | 25.56073 | 54.17921 | 33799 ft | 455 kts | 283° |
| 2026-04-29 20:22 | 25.58011 | 54.11297 | 33801 ft | 455 kts | 283° |
| 2026-04-29 20:23 | 25.59961 | 54.04631 | 33801 ft | 455 kts | 283° |
| 2026-04-29 20:23 | 25.61873 | 53.97950 | 33803 ft | 455 kts | 283° |
| 2026-04-29 20:24 | 25.63766 | 53.91259 | 33804 ft | 455 kts | 283° |
| 2026-04-29 20:24 | 25.65644 | 53.84631 | 33802 ft | 454 kts | 283° |
| 2026-04-29 20:25 | 25.67538 | 53.77953 | 33806 ft | 454 kts | 283° |
| 2026-04-29 20:25 | 25.69429 | 53.71284 | 33805 ft | 454 kts | 283° |
| 2026-04-29 20:26 | 25.71314 | 53.64599 | 33803 ft | 455 kts | 283° |
| 2026-04-29 20:26 | 25.73177 | 53.57946 | 33804 ft | 455 kts | 282° |
| 2026-04-29 20:27 | 25.74747 | 53.52336 | 33803 ft | 455 kts | 282° |
| 2026-04-29 20:27 | 25.76932 | 53.44561 | 33806 ft | 454 kts | 282° |
| 2026-04-29 20:28 | 25.78806 | 53.37875 | 33801 ft | 454 kts | 282° |
| 2026-04-29 20:28 | 25.80674 | 53.31194 | 33804 ft | 453 kts | 282° |
| 2026-04-29 20:29 | 25.82527 | 53.24556 | 33808 ft | 453 kts | 282° |
| 2026-04-29 20:29 | 25.84165 | 53.17824 | 33803 ft | 449 kts | 275° |
| 2026-04-29 20:30 | 25.84983 | 53.10978 | 33806 ft | 447 kts | 272° |
| 2026-04-29 20:30 | 25.85650 | 53.04110 | 33808 ft | 447 kts | 272° |
| 2026-04-29 20:31 | 25.86291 | 52.97297 | 33806 ft | 447 kts | 272° |
| 2026-04-29 20:31 | 25.86947 | 52.90442 | 33808 ft | 447 kts | 272° |
| 2026-04-29 20:32 | 25.87608 | 52.83586 | 33807 ft | 447 kts | 272° |
| 2026-04-29 20:32 | 25.88268 | 52.76732 | 33807 ft | 447 kts | 272° |
| 2026-04-29 20:33 | 25.88921 | 52.69915 | 33814 ft | 447 kts | 272° |
| 2026-04-29 20:33 | 25.89672 | 52.63049 | 33815 ft | 450 kts | 277° |
| 2026-04-29 20:34 | 25.91662 | 52.56412 | 33816 ft | 458 kts | 289° |
| 2026-04-29 20:34 | 25.94408 | 52.50002 | 33817 ft | 460 kts | 290° |
| 2026-04-29 20:35 | 25.97258 | 52.43633 | 33816 ft | 460 kts | 290° |
| 2026-04-29 20:35 | 26.00076 | 52.37314 | 33818 ft | 459 kts | 290° |
| 2026-04-29 20:36 | 26.02920 | 52.30965 | 33825 ft | 459 kts | 290° |
| 2026-04-29 20:36 | 26.05763 | 52.24608 | 33821 ft | 459 kts | 290° |
| 2026-04-29 20:37 | 26.08598 | 52.18246 | 33821 ft | 459 kts | 290° |
| 2026-04-29 20:37 | 26.11408 | 52.11929 | 33819 ft | 458 kts | 290° |
| 2026-04-29 20:38 | 26.14226 | 52.05583 | 33821 ft | 457 kts | 290° |
| 2026-04-29 20:38 | 26.17036 | 51.99243 | 33826 ft | 458 kts | 290° |
| 2026-04-29 20:39 | 26.19892 | 51.92888 | 33828 ft | 459 kts | 290° |
| 2026-04-29 20:39 | 26.22702 | 51.86597 | 33456 ft | 451 kts | 290° |
| 2026-04-29 20:40 | 26.24084 | 51.83458 | 32500 ft | 454 kts | 289° |
| 2026-04-29 20:40 | 26.25467 | 51.80292 | 31497 ft | 457 kts | 289° |
| 2026-04-29 20:40 | 26.26877 | 51.77092 | 30505 ft | 461 kts | 290° |
| 2026-04-29 20:40 | 26.28301 | 51.73881 | 29537 ft | 462 kts | 290° |
| 2026-04-29 20:41 | 26.29729 | 51.70674 | 28532 ft | 463 kts | 290° |
| 2026-04-29 20:41 | 26.31164 | 51.67455 | 27545 ft | 463 kts | 290° |
| 2026-04-29 20:41 | 26.32594 | 51.64255 | 26686 ft | 461 kts | 291° |
| 2026-04-29 20:41 | 26.33999 | 51.61116 | 25916 ft | 457 kts | 291° |
| 2026-04-29 20:42 | 26.35411 | 51.57955 | 25185 ft | 453 kts | 291° |
| 2026-04-29 20:42 | 26.36809 | 51.54818 | 24438 ft | 450 kts | 291° |
| 2026-04-29 20:42 | 26.38047 | 51.51640 | 23669 ft | 445 kts | 287° |
| 2026-04-29 20:42 | 26.39164 | 51.48412 | 22667 ft | 446 kts | 285° |
| 2026-04-29 20:43 | 26.40219 | 51.45189 | 21993 ft | 439 kts | 285° |
| 2026-04-29 20:43 | 26.41234 | 51.42005 | 21323 ft | 432 kts | 284° |
| 2026-04-29 20:43 | 26.42222 | 51.38875 | 20597 ft | 422 kts | 285° |
| 2026-04-29 20:43 | 26.43170 | 51.35881 | 19419 ft | 409 kts | 285° |
| 2026-04-29 20:44 | 26.44112 | 51.32916 | 18051 ft | 404 kts | 285° |
| 2026-04-29 20:44 | 26.45027 | 51.29980 | 16544 ft | 396 kts | 284° |
| 2026-04-29 20:44 | 26.45508 | 51.27012 | 15055 ft | 384 kts | 269° |
| 2026-04-29 20:44 | 26.45108 | 51.24112 | 13646 ft | 378 kts | 252° |
| 2026-04-29 20:45 | 26.44155 | 51.21408 | 12414 ft | 367 kts | 248° |
| 2026-04-29 20:45 | 26.43185 | 51.18887 | 11839 ft | 341 kts | 248° |
| 2026-04-29 20:45 | 26.42295 | 51.16546 | 11384 ft | 316 kts | 248° |
| 2026-04-29 20:45 | 26.41478 | 51.14378 | 11078 ft | 289 kts | 248° |
| 2026-04-29 20:46 | 26.40737 | 51.12400 | 10880 ft | 264 kts | 248° |
| 2026-04-29 20:46 | 26.40064 | 51.10600 | 10743 ft | 250 kts | 248° |
| 2026-04-29 20:46 | 26.39396 | 51.08805 | 10467 ft | 250 kts | 248° |
| 2026-04-29 20:46 | 26.38733 | 51.07024 | 10181 ft | 246 kts | 248° |
| 2026-04-29 20:47 | 26.38075 | 51.05255 | 9983 ft | 248 kts | 248° |
| 2026-04-29 20:47 | 26.37396 | 51.03428 | 9768 ft | 262 kts | 248° |
| 2026-04-29 20:47 | 26.36692 | 51.01538 | 9650 ft | 263 kts | 248° |
| 2026-04-29 20:47 | 26.35991 | 50.99657 | 9109 ft | 264 kts | 248° |
| 2026-04-29 20:48 | 26.35288 | 50.97773 | 8641 ft | 263 kts | 248° |
| 2026-04-29 20:48 | 26.34587 | 50.95892 | 8281 ft | 262 kts | 248° |
| 2026-04-29 20:48 | 26.33787 | 50.94107 | 7943 ft | 262 kts | 238° |
| 2026-04-29 20:48 | 26.32499 | 50.92701 | 7747 ft | 256 kts | 217° |
| 2026-04-29 20:49 | 26.31003 | 50.91718 | 7628 ft | 243 kts | 213° |
| 2026-04-29 20:49 | 26.29557 | 50.90837 | 7524 ft | 230 kts | 213° |
| 2026-04-29 20:49 | 26.28190 | 50.90000 | 7413 ft | 220 kts | 213° |
| 2026-04-29 20:49 | 26.26862 | 50.89152 | 7201 ft | 219 kts | 217° |
| 2026-04-29 20:50 | 26.25751 | 50.88040 | 6930 ft | 213 kts | 232° |
| 2026-04-29 20:50 | 26.24817 | 50.86762 | 6737 ft | 214 kts | 234° |
| 2026-04-29 20:50 | 26.23899 | 50.85459 | 6489 ft | 213 kts | 234° |
| 2026-04-29 20:50 | 26.22984 | 50.84166 | 6252 ft | 212 kts | 234° |
| 2026-04-29 20:51 | 26.22091 | 50.82912 | 6031 ft | 209 kts | 234° |
| 2026-04-29 20:51 | 26.21184 | 50.81637 | 5652 ft | 211 kts | 234° |
| 2026-04-29 20:51 | 26.20271 | 50.80359 | 5187 ft | 211 kts | 234° |
| 2026-04-29 20:51 | 26.19435 | 50.79019 | 4711 ft | 210 kts | 244° |
| 2026-04-29 20:52 | 26.19179 | 50.77447 | 4236 ft | 209 kts | 275° |
| 2026-04-29 20:52 | 26.19726 | 50.75946 | 3761 ft | 213 kts | 300° |
| 2026-04-29 20:52 | 26.20578 | 50.74622 | 3289 ft | 206 kts | 303° |
| 2026-04-29 20:52 | 26.21370 | 50.73327 | 2821 ft | 198 kts | 298° |
| 2026-04-29 20:53 | 26.22070 | 50.72046 | 2372 ft | 195 kts | 300° |
| 2026-04-29 20:53 | 26.22786 | 50.70807 | 2035 ft | 183 kts | 302° |
| 2026-04-29 20:53 | 26.23449 | 50.69618 | 1494 ft | 178 kts | 302° |
| 2026-04-29 20:53 | 26.24066 | 50.68488 | 1082 ft | 166 kts | 304° |
| 2026-04-29 20:54 | 26.25297 | 50.66446 | 525 ft | 151 kts | 309° |
| 2026-04-29 20:54 | 26.25850 | 50.65488 | 213 ft | 141 kts | 306° |
| 2026-04-29 20:54 | 26.26350 | 50.64619 | 41 ft | 125 kts | 308° |
| 2026-04-29 20:55 | 26.26782 | 50.63891 | 21 ft | 91 kts | 303° |
| 2026-04-29 20:55 | 26.26961 | 50.63577 | 20 ft | 7 kts | 297° |
| 2026-04-29 20:55 | 26.26974 | 50.63536 | 20 ft | 10 kts | 282° |
| 2026-04-29 20:55 | 26.26960 | 50.63490 | 20 ft | 5 kts | 219° |
| 2026-04-29 20:56 | 26.26920 | 50.63456 | 20 ft | 9 kts | 217° |
| 2026-04-29 20:56 | 26.26856 | 50.63406 | 18 ft | 13 kts | 212° |
| 2026-04-29 20:56 | 26.26799 | 50.63336 | 21 ft | 9 kts | 270° |
| 2026-04-29 20:56 | 26.26801 | 50.63270 | 20 ft | 8 kts | 250° |
| 2026-04-29 20:57 | 26.26769 | 50.63248 | 20 ft | 6 kts | 203° |
| 2026-04-29 20:57 | 26.26759 | 50.63243 | 20 ft | 0 kts | 209° |
| 2026-04-29 20:57 | 26.26746 | 50.63235 | 22 ft | 0 kts | 209° |
| 2026-04-29 20:58 | 26.26744 | 50.63234 | 21 ft | 0 kts | 209° |